<?xml version="1.0" encoding="UTF-8" standalone="no" ?>
<gpx xmlns="http://www.topografix.com/GPX/1/1" xmlns:xsi="http://www.w3.org/2001/XMLSchema-instance" xsi:schemaLocation="http://www.topografix.com/GPX/1/1 http://www.topografix.com/GPX/1/1/gpx.xsd" version="1.1" creator="VisuGPX - https://www.visugpx.com">
  <metadata>
    <name>Essai2</name>
  </metadata>
  <trk>
    <name><![CDATA[Tracé actuel: 10 DEC 2020 08:55]]></name>
    <trkseg>
      <trkpt lat="44.82311" lon="5.03945">
        <ele>326.5</ele>
        <time>2020-12-10T07:55:55Z</time>
      </trkpt>
      <trkpt lat="44.82327" lon="5.03962">
        <ele>328.43</ele>
        <time>2020-12-10T07:56:12Z</time>
      </trkpt>
      <trkpt lat="44.82341" lon="5.03973">
        <ele>329.39</ele>
        <time>2020-12-10T07:56:25Z</time>
      </trkpt>
      <trkpt lat="44.82365" lon="5.03989">
        <ele>327.47</ele>
        <time>2020-12-10T07:56:42Z</time>
      </trkpt>
      <trkpt lat="44.82377" lon="5.04001">
        <ele>327.95</ele>
        <time>2020-12-10T07:56:54Z</time>
      </trkpt>
      <trkpt lat="44.82397" lon="5.04017">
        <ele>330.83</ele>
        <time>2020-12-10T07:57:07Z</time>
      </trkpt>
      <trkpt lat="44.82416" lon="5.04031">
        <ele>332.75</ele>
        <time>2020-12-10T07:57:22Z</time>
      </trkpt>
      <trkpt lat="44.82432" lon="5.04039">
        <ele>334.2</ele>
        <time>2020-12-10T07:57:35Z</time>
      </trkpt>
      <trkpt lat="44.82457" lon="5.04052">
        <ele>335.16</ele>
        <time>2020-12-10T07:57:52Z</time>
      </trkpt>
      <trkpt lat="44.8248" lon="5.04062">
        <ele>333.23</ele>
        <time>2020-12-10T07:58:07Z</time>
      </trkpt>
      <trkpt lat="44.825" lon="5.04069">
        <ele>331.31</ele>
        <time>2020-12-10T07:58:20Z</time>
      </trkpt>
      <trkpt lat="44.82521" lon="5.04081">
        <ele>329.39</ele>
        <time>2020-12-10T07:58:36Z</time>
      </trkpt>
      <trkpt lat="44.82544" lon="5.04091">
        <ele>329.87</ele>
        <time>2020-12-10T07:58:52Z</time>
      </trkpt>
      <trkpt lat="44.82563" lon="5.04099">
        <ele>331.31</ele>
        <time>2020-12-10T07:59:06Z</time>
      </trkpt>
      <trkpt lat="44.82581" lon="5.04095">
        <ele>330.35</ele>
        <time>2020-12-10T07:59:18Z</time>
      </trkpt>
      <trkpt lat="44.82589" lon="5.04084">
        <ele>330.35</ele>
        <time>2020-12-10T07:59:26Z</time>
      </trkpt>
      <trkpt lat="44.82598" lon="5.04076">
        <ele>329.39</ele>
        <time>2020-12-10T07:59:32Z</time>
      </trkpt>
      <trkpt lat="44.82616" lon="5.04061">
        <ele>329.39</ele>
        <time>2020-12-10T07:59:49Z</time>
      </trkpt>
      <trkpt lat="44.82636" lon="5.04052">
        <ele>333.23</ele>
        <time>2020-12-10T08:00:04Z</time>
      </trkpt>
      <trkpt lat="44.82647" lon="5.04049">
        <ele>334.68</ele>
        <time>2020-12-10T08:00:13Z</time>
      </trkpt>
      <trkpt lat="44.82672" lon="5.04049">
        <ele>332.75</ele>
        <time>2020-12-10T08:00:27Z</time>
      </trkpt>
      <trkpt lat="44.8269" lon="5.04054">
        <ele>329.87</ele>
        <time>2020-12-10T08:00:40Z</time>
      </trkpt>
      <trkpt lat="44.82712" lon="5.04057">
        <ele>330.35</ele>
        <time>2020-12-10T08:00:55Z</time>
      </trkpt>
      <trkpt lat="44.82732" lon="5.04058">
        <ele>330.83</ele>
        <time>2020-12-10T08:01:08Z</time>
      </trkpt>
      <trkpt lat="44.82753" lon="5.04057">
        <ele>329.39</ele>
        <time>2020-12-10T08:01:22Z</time>
      </trkpt>
      <trkpt lat="44.82772" lon="5.04053">
        <ele>330.35</ele>
        <time>2020-12-10T08:01:35Z</time>
      </trkpt>
      <trkpt lat="44.82778" lon="5.04052">
        <ele>330.35</ele>
        <time>2020-12-10T08:01:40Z</time>
      </trkpt>
      <trkpt lat="44.82799" lon="5.04055">
        <ele>329.39</ele>
        <time>2020-12-10T08:01:54Z</time>
      </trkpt>
      <trkpt lat="44.82818" lon="5.04062">
        <ele>329.39</ele>
        <time>2020-12-10T08:02:08Z</time>
      </trkpt>
      <trkpt lat="44.82834" lon="5.04067">
        <ele>329.39</ele>
        <time>2020-12-10T08:02:20Z</time>
      </trkpt>
      <trkpt lat="44.82851" lon="5.04075">
        <ele>327.95</ele>
        <time>2020-12-10T08:02:31Z</time>
      </trkpt>
      <trkpt lat="44.82869" lon="5.04082">
        <ele>324.58</ele>
        <time>2020-12-10T08:02:45Z</time>
      </trkpt>
      <trkpt lat="44.82886" lon="5.04091">
        <ele>326.02</ele>
        <time>2020-12-10T08:02:58Z</time>
      </trkpt>
      <trkpt lat="44.82904" lon="5.041">
        <ele>328.91</ele>
        <time>2020-12-10T08:03:13Z</time>
      </trkpt>
      <trkpt lat="44.82919" lon="5.04109">
        <ele>328.91</ele>
        <time>2020-12-10T08:03:25Z</time>
      </trkpt>
      <trkpt lat="44.82937" lon="5.04116">
        <ele>330.35</ele>
        <time>2020-12-10T08:03:40Z</time>
      </trkpt>
      <trkpt lat="44.82954" lon="5.04122">
        <ele>331.31</ele>
        <time>2020-12-10T08:03:52Z</time>
      </trkpt>
      <trkpt lat="44.8297" lon="5.04128">
        <ele>332.75</ele>
        <time>2020-12-10T08:04:05Z</time>
      </trkpt>
      <trkpt lat="44.82988" lon="5.04131">
        <ele>333.71</ele>
        <time>2020-12-10T08:04:20Z</time>
      </trkpt>
      <trkpt lat="44.83008" lon="5.04133">
        <ele>334.68</ele>
        <time>2020-12-10T08:04:33Z</time>
      </trkpt>
      <trkpt lat="44.83023" lon="5.04136">
        <ele>337.56</ele>
        <time>2020-12-10T08:04:46Z</time>
      </trkpt>
      <trkpt lat="44.83042" lon="5.04142">
        <ele>341.41</ele>
        <time>2020-12-10T08:05:00Z</time>
      </trkpt>
      <trkpt lat="44.83055" lon="5.04146">
        <ele>341.89</ele>
        <time>2020-12-10T08:05:10Z</time>
      </trkpt>
      <trkpt lat="44.83072" lon="5.04151">
        <ele>340.92</ele>
        <time>2020-12-10T08:05:23Z</time>
      </trkpt>
      <trkpt lat="44.83091" lon="5.04156">
        <ele>340.92</ele>
        <time>2020-12-10T08:05:37Z</time>
      </trkpt>
      <trkpt lat="44.8311" lon="5.0416">
        <ele>339.96</ele>
        <time>2020-12-10T08:05:52Z</time>
      </trkpt>
      <trkpt lat="44.83128" lon="5.04165">
        <ele>340.44</ele>
        <time>2020-12-10T08:06:05Z</time>
      </trkpt>
      <trkpt lat="44.83144" lon="5.04172">
        <ele>342.37</ele>
        <time>2020-12-10T08:06:17Z</time>
      </trkpt>
      <trkpt lat="44.83163" lon="5.0418">
        <ele>343.33</ele>
        <time>2020-12-10T08:06:31Z</time>
      </trkpt>
      <trkpt lat="44.83182" lon="5.04185">
        <ele>342.37</ele>
        <time>2020-12-10T08:06:45Z</time>
      </trkpt>
      <trkpt lat="44.83202" lon="5.04187">
        <ele>339.96</ele>
        <time>2020-12-10T08:06:59Z</time>
      </trkpt>
      <trkpt lat="44.83221" lon="5.04189">
        <ele>339</ele>
        <time>2020-12-10T08:07:10Z</time>
      </trkpt>
      <trkpt lat="44.83225" lon="5.04189">
        <ele>338.52</ele>
        <time>2020-12-10T08:07:14Z</time>
      </trkpt>
      <trkpt lat="44.83248" lon="5.04191">
        <ele>336.6</ele>
        <time>2020-12-10T08:07:28Z</time>
      </trkpt>
      <trkpt lat="44.8327" lon="5.04191">
        <ele>336.12</ele>
        <time>2020-12-10T08:07:43Z</time>
      </trkpt>
      <trkpt lat="44.83289" lon="5.04192">
        <ele>333.23</ele>
        <time>2020-12-10T08:07:58Z</time>
      </trkpt>
      <trkpt lat="44.83312" lon="5.04191">
        <ele>333.71</ele>
        <time>2020-12-10T08:08:13Z</time>
      </trkpt>
      <trkpt lat="44.83334" lon="5.04193">
        <ele>333.23</ele>
        <time>2020-12-10T08:08:26Z</time>
      </trkpt>
      <trkpt lat="44.83355" lon="5.04193">
        <ele>332.27</ele>
        <time>2020-12-10T08:08:41Z</time>
      </trkpt>
      <trkpt lat="44.83375" lon="5.04191">
        <ele>330.83</ele>
        <time>2020-12-10T08:08:55Z</time>
      </trkpt>
      <trkpt lat="44.83394" lon="5.04196">
        <ele>329.39</ele>
        <time>2020-12-10T08:09:08Z</time>
      </trkpt>
      <trkpt lat="44.83412" lon="5.04195">
        <ele>331.79</ele>
        <time>2020-12-10T08:09:21Z</time>
      </trkpt>
      <trkpt lat="44.83433" lon="5.04194">
        <ele>332.75</ele>
        <time>2020-12-10T08:09:34Z</time>
      </trkpt>
      <trkpt lat="44.83458" lon="5.04178">
        <ele>332.75</ele>
        <time>2020-12-10T08:09:50Z</time>
      </trkpt>
      <trkpt lat="44.83464" lon="5.04157">
        <ele>333.71</ele>
        <time>2020-12-10T08:10:02Z</time>
      </trkpt>
      <trkpt lat="44.83475" lon="5.04132">
        <ele>332.75</ele>
        <time>2020-12-10T08:10:19Z</time>
      </trkpt>
      <trkpt lat="44.8348" lon="5.04132">
        <ele>332.27</ele>
        <time>2020-12-10T08:10:24Z</time>
      </trkpt>
      <trkpt lat="44.83511" lon="5.04156">
        <ele>331.31</ele>
        <time>2020-12-10T08:10:48Z</time>
      </trkpt>
      <trkpt lat="44.83529" lon="5.04179">
        <ele>328.43</ele>
        <time>2020-12-10T08:11:05Z</time>
      </trkpt>
      <trkpt lat="44.83531" lon="5.04185">
        <ele>328.91</ele>
        <time>2020-12-10T08:11:08Z</time>
      </trkpt>
      <trkpt lat="44.83529" lon="5.04219">
        <ele>327.95</ele>
        <time>2020-12-10T08:11:25Z</time>
      </trkpt>
      <trkpt lat="44.8353" lon="5.0425">
        <ele>326.02</ele>
        <time>2020-12-10T08:11:40Z</time>
      </trkpt>
      <trkpt lat="44.83531" lon="5.04281">
        <ele>323.62</ele>
        <time>2020-12-10T08:11:56Z</time>
      </trkpt>
      <trkpt lat="44.83527" lon="5.04316">
        <ele>320.74</ele>
        <time>2020-12-10T08:12:13Z</time>
      </trkpt>
      <trkpt lat="44.83539" lon="5.04335">
        <ele>319.3</ele>
        <time>2020-12-10T08:12:26Z</time>
      </trkpt>
      <trkpt lat="44.83563" lon="5.04347">
        <ele>319.3</ele>
        <time>2020-12-10T08:12:42Z</time>
      </trkpt>
      <trkpt lat="44.83575" lon="5.04378">
        <ele>318.81</ele>
        <time>2020-12-10T08:12:58Z</time>
      </trkpt>
      <trkpt lat="44.8359" lon="5.04394">
        <ele>320.74</ele>
        <time>2020-12-10T08:13:13Z</time>
      </trkpt>
      <trkpt lat="44.83607" lon="5.04401">
        <ele>323.62</ele>
        <time>2020-12-10T08:13:27Z</time>
      </trkpt>
      <trkpt lat="44.83629" lon="5.04403">
        <ele>329.39</ele>
        <time>2020-12-10T08:13:45Z</time>
      </trkpt>
      <trkpt lat="44.83646" lon="5.04404">
        <ele>331.79</ele>
        <time>2020-12-10T08:14:01Z</time>
      </trkpt>
      <trkpt lat="44.83663" lon="5.04407">
        <ele>333.71</ele>
        <time>2020-12-10T08:14:16Z</time>
      </trkpt>
      <trkpt lat="44.83685" lon="5.04402">
        <ele>338.04</ele>
        <time>2020-12-10T08:14:36Z</time>
      </trkpt>
      <trkpt lat="44.83706" lon="5.044">
        <ele>338.04</ele>
        <time>2020-12-10T08:14:52Z</time>
      </trkpt>
      <trkpt lat="44.8373" lon="5.04403">
        <ele>339.96</ele>
        <time>2020-12-10T08:15:10Z</time>
      </trkpt>
      <trkpt lat="44.83751" lon="5.04406">
        <ele>341.89</ele>
        <time>2020-12-10T08:15:26Z</time>
      </trkpt>
      <trkpt lat="44.83773" lon="5.0441">
        <ele>343.33</ele>
        <time>2020-12-10T08:15:43Z</time>
      </trkpt>
      <trkpt lat="44.83797" lon="5.0441">
        <ele>342.85</ele>
        <time>2020-12-10T08:16:00Z</time>
      </trkpt>
      <trkpt lat="44.83823" lon="5.04411">
        <ele>344.29</ele>
        <time>2020-12-10T08:16:19Z</time>
      </trkpt>
      <trkpt lat="44.83846" lon="5.04414">
        <ele>345.73</ele>
        <time>2020-12-10T08:16:36Z</time>
      </trkpt>
      <trkpt lat="44.83866" lon="5.04418">
        <ele>346.69</ele>
        <time>2020-12-10T08:16:52Z</time>
      </trkpt>
      <trkpt lat="44.83886" lon="5.04432">
        <ele>349.1</ele>
        <time>2020-12-10T08:17:08Z</time>
      </trkpt>
      <trkpt lat="44.839" lon="5.04449">
        <ele>352.46</ele>
        <time>2020-12-10T08:17:23Z</time>
      </trkpt>
      <trkpt lat="44.83916" lon="5.04468">
        <ele>353.9</ele>
        <time>2020-12-10T08:17:40Z</time>
      </trkpt>
      <trkpt lat="44.83935" lon="5.04485">
        <ele>356.31</ele>
        <time>2020-12-10T08:18:00Z</time>
      </trkpt>
      <trkpt lat="44.83948" lon="5.04495">
        <ele>357.75</ele>
        <time>2020-12-10T08:18:16Z</time>
      </trkpt>
      <trkpt lat="44.83957" lon="5.04504">
        <ele>359.67</ele>
        <time>2020-12-10T08:18:28Z</time>
      </trkpt>
      <trkpt lat="44.83971" lon="5.04515">
        <ele>362.07</ele>
        <time>2020-12-10T08:18:43Z</time>
      </trkpt>
      <trkpt lat="44.83984" lon="5.04528">
        <ele>364</ele>
        <time>2020-12-10T08:18:57Z</time>
      </trkpt>
      <trkpt lat="44.83998" lon="5.04543">
        <ele>365.92</ele>
        <time>2020-12-10T08:19:12Z</time>
      </trkpt>
      <trkpt lat="44.84015" lon="5.04556">
        <ele>367.36</ele>
        <time>2020-12-10T08:19:29Z</time>
      </trkpt>
      <trkpt lat="44.84026" lon="5.04569">
        <ele>368.8</ele>
        <time>2020-12-10T08:19:42Z</time>
      </trkpt>
      <trkpt lat="44.84027" lon="5.04571">
        <ele>368.8</ele>
        <time>2020-12-10T08:19:56Z</time>
      </trkpt>
      <trkpt lat="44.84027" lon="5.04575">
        <ele>368.8</ele>
        <time>2020-12-10T08:19:59Z</time>
      </trkpt>
      <trkpt lat="44.84026" lon="5.04596">
        <ele>368.8</ele>
        <time>2020-12-10T08:20:12Z</time>
      </trkpt>
      <trkpt lat="44.84026" lon="5.04607">
        <ele>368.8</ele>
        <time>2020-12-10T08:20:18Z</time>
      </trkpt>
      <trkpt lat="44.84019" lon="5.04628">
        <ele>370.24</ele>
        <time>2020-12-10T08:20:31Z</time>
      </trkpt>
      <trkpt lat="44.84015" lon="5.04642">
        <ele>371.21</ele>
        <time>2020-12-10T08:20:40Z</time>
      </trkpt>
      <trkpt lat="44.84022" lon="5.04667">
        <ele>371.21</ele>
        <time>2020-12-10T08:20:54Z</time>
      </trkpt>
      <trkpt lat="44.84022" lon="5.04668">
        <ele>371.21</ele>
        <time>2020-12-10T08:20:55Z</time>
      </trkpt>
      <trkpt lat="44.84022" lon="5.04685">
        <ele>370.73</ele>
        <time>2020-12-10T08:21:05Z</time>
      </trkpt>
      <trkpt lat="44.84009" lon="5.04704">
        <ele>371.69</ele>
        <time>2020-12-10T08:21:18Z</time>
      </trkpt>
      <trkpt lat="44.84014" lon="5.04727">
        <ele>369.28</ele>
        <time>2020-12-10T08:21:32Z</time>
      </trkpt>
      <trkpt lat="44.84027" lon="5.04744">
        <ele>370.24</ele>
        <time>2020-12-10T08:21:46Z</time>
      </trkpt>
      <trkpt lat="44.8404" lon="5.0475">
        <ele>370.73</ele>
        <time>2020-12-10T08:21:57Z</time>
      </trkpt>
      <trkpt lat="44.84046" lon="5.04751">
        <ele>370.73</ele>
        <time>2020-12-10T08:22:01Z</time>
      </trkpt>
      <trkpt lat="44.84062" lon="5.04755">
        <ele>371.69</ele>
        <time>2020-12-10T08:22:12Z</time>
      </trkpt>
      <trkpt lat="44.84068" lon="5.04758">
        <ele>371.21</ele>
        <time>2020-12-10T08:22:17Z</time>
      </trkpt>
      <trkpt lat="44.84085" lon="5.04772">
        <ele>366.88</ele>
        <time>2020-12-10T08:22:33Z</time>
      </trkpt>
      <trkpt lat="44.84107" lon="5.0478">
        <ele>366.4</ele>
        <time>2020-12-10T08:22:49Z</time>
      </trkpt>
      <trkpt lat="44.84118" lon="5.04794">
        <ele>364</ele>
        <time>2020-12-10T08:23:00Z</time>
      </trkpt>
      <trkpt lat="44.84133" lon="5.04808">
        <ele>363.52</ele>
        <time>2020-12-10T08:23:13Z</time>
      </trkpt>
      <trkpt lat="44.84135" lon="5.04811">
        <ele>363.52</ele>
        <time>2020-12-10T08:23:16Z</time>
      </trkpt>
      <trkpt lat="44.84141" lon="5.04827">
        <ele>364.48</ele>
        <time>2020-12-10T08:23:26Z</time>
      </trkpt>
      <trkpt lat="44.84146" lon="5.04852">
        <ele>365.44</ele>
        <time>2020-12-10T08:23:39Z</time>
      </trkpt>
      <trkpt lat="44.84146" lon="5.04883">
        <ele>365.92</ele>
        <time>2020-12-10T08:23:56Z</time>
      </trkpt>
      <trkpt lat="44.84144" lon="5.04891">
        <ele>366.4</ele>
        <time>2020-12-10T08:24:01Z</time>
      </trkpt>
      <trkpt lat="44.84136" lon="5.04904">
        <ele>366.88</ele>
        <time>2020-12-10T08:24:14Z</time>
      </trkpt>
      <trkpt lat="44.84133" lon="5.04903">
        <ele>366.88</ele>
        <time>2020-12-10T08:24:28Z</time>
      </trkpt>
      <trkpt lat="44.84134" lon="5.04913">
        <ele>369.76</ele>
        <time>2020-12-10T08:24:44Z</time>
      </trkpt>
      <trkpt lat="44.84131" lon="5.04912">
        <ele>373.13</ele>
        <time>2020-12-10T08:25:15Z</time>
      </trkpt>
      <trkpt lat="44.84134" lon="5.04915">
        <ele>372.65</ele>
        <time>2020-12-10T08:25:28Z</time>
      </trkpt>
      <trkpt lat="44.84131" lon="5.0492">
        <ele>372.65</ele>
        <time>2020-12-10T08:25:32Z</time>
      </trkpt>
      <trkpt lat="44.84123" lon="5.0494">
        <ele>372.65</ele>
        <time>2020-12-10T08:25:47Z</time>
      </trkpt>
      <trkpt lat="44.84115" lon="5.04967">
        <ele>375.05</ele>
        <time>2020-12-10T08:26:04Z</time>
      </trkpt>
      <trkpt lat="44.84114" lon="5.0497">
        <ele>375.53</ele>
        <time>2020-12-10T08:26:05Z</time>
      </trkpt>
      <trkpt lat="44.84108" lon="5.05">
        <ele>379.38</ele>
        <time>2020-12-10T08:26:23Z</time>
      </trkpt>
      <trkpt lat="44.841" lon="5.05016">
        <ele>382.74</ele>
        <time>2020-12-10T08:26:36Z</time>
      </trkpt>
      <trkpt lat="44.84088" lon="5.05036">
        <ele>386.59</ele>
        <time>2020-12-10T08:26:54Z</time>
      </trkpt>
      <trkpt lat="44.84081" lon="5.05062">
        <ele>388.03</ele>
        <time>2020-12-10T08:27:09Z</time>
      </trkpt>
      <trkpt lat="44.84073" lon="5.0509">
        <ele>390.43</ele>
        <time>2020-12-10T08:27:25Z</time>
      </trkpt>
      <trkpt lat="44.84073" lon="5.05117">
        <ele>391.39</ele>
        <time>2020-12-10T08:27:40Z</time>
      </trkpt>
      <trkpt lat="44.84079" lon="5.05139">
        <ele>393.32</ele>
        <time>2020-12-10T08:27:54Z</time>
      </trkpt>
      <trkpt lat="44.8409" lon="5.05155">
        <ele>394.28</ele>
        <time>2020-12-10T08:28:09Z</time>
      </trkpt>
      <trkpt lat="44.84099" lon="5.05178">
        <ele>394.28</ele>
        <time>2020-12-10T08:28:23Z</time>
      </trkpt>
      <trkpt lat="44.84102" lon="5.052">
        <ele>393.8</ele>
        <time>2020-12-10T08:28:36Z</time>
      </trkpt>
      <trkpt lat="44.84096" lon="5.05224">
        <ele>393.32</ele>
        <time>2020-12-10T08:28:50Z</time>
      </trkpt>
      <trkpt lat="44.84084" lon="5.0524">
        <ele>394.76</ele>
        <time>2020-12-10T08:29:04Z</time>
      </trkpt>
      <trkpt lat="44.8407" lon="5.05256">
        <ele>396.2</ele>
        <time>2020-12-10T08:29:20Z</time>
      </trkpt>
      <trkpt lat="44.84058" lon="5.05278">
        <ele>397.64</ele>
        <time>2020-12-10T08:29:35Z</time>
      </trkpt>
      <trkpt lat="44.8405" lon="5.053">
        <ele>399.57</ele>
        <time>2020-12-10T08:29:50Z</time>
      </trkpt>
      <trkpt lat="44.84041" lon="5.05324">
        <ele>400.53</ele>
        <time>2020-12-10T08:30:04Z</time>
      </trkpt>
      <trkpt lat="44.84036" lon="5.05337">
        <ele>401.01</ele>
        <time>2020-12-10T08:30:12Z</time>
      </trkpt>
      <trkpt lat="44.84034" lon="5.05344">
        <ele>401.01</ele>
        <time>2020-12-10T08:30:16Z</time>
      </trkpt>
      <trkpt lat="44.84026" lon="5.05367">
        <ele>401.49</ele>
        <time>2020-12-10T08:30:31Z</time>
      </trkpt>
      <trkpt lat="44.84025" lon="5.05369">
        <ele>401.97</ele>
        <time>2020-12-10T08:30:33Z</time>
      </trkpt>
      <trkpt lat="44.84024" lon="5.05372">
        <ele>401.97</ele>
        <time>2020-12-10T08:30:35Z</time>
      </trkpt>
      <trkpt lat="44.84021" lon="5.0538">
        <ele>402.45</ele>
        <time>2020-12-10T08:30:40Z</time>
      </trkpt>
      <trkpt lat="44.84012" lon="5.05406">
        <ele>403.41</ele>
        <time>2020-12-10T08:30:56Z</time>
      </trkpt>
      <trkpt lat="44.84004" lon="5.05434">
        <ele>404.37</ele>
        <time>2020-12-10T08:31:12Z</time>
      </trkpt>
      <trkpt lat="44.83998" lon="5.05452">
        <ele>406.29</ele>
        <time>2020-12-10T08:31:24Z</time>
      </trkpt>
      <trkpt lat="44.8399" lon="5.05471">
        <ele>410.14</ele>
        <time>2020-12-10T08:31:38Z</time>
      </trkpt>
      <trkpt lat="44.83984" lon="5.05483">
        <ele>412.06</ele>
        <time>2020-12-10T08:31:47Z</time>
      </trkpt>
      <trkpt lat="44.83974" lon="5.055">
        <ele>414.47</ele>
        <time>2020-12-10T08:32:02Z</time>
      </trkpt>
      <trkpt lat="44.83964" lon="5.0552">
        <ele>416.87</ele>
        <time>2020-12-10T08:32:17Z</time>
      </trkpt>
      <trkpt lat="44.83957" lon="5.05539">
        <ele>419.27</ele>
        <time>2020-12-10T08:32:29Z</time>
      </trkpt>
      <trkpt lat="44.83951" lon="5.05557">
        <ele>421.68</ele>
        <time>2020-12-10T08:32:42Z</time>
      </trkpt>
      <trkpt lat="44.83948" lon="5.05564">
        <ele>422.64</ele>
        <time>2020-12-10T08:32:48Z</time>
      </trkpt>
      <trkpt lat="44.83937" lon="5.05575">
        <ele>426</ele>
        <time>2020-12-10T08:33:03Z</time>
      </trkpt>
      <trkpt lat="44.83924" lon="5.05591">
        <ele>428.4</ele>
        <time>2020-12-10T08:33:19Z</time>
      </trkpt>
      <trkpt lat="44.83915" lon="5.05605">
        <ele>428.89</ele>
        <time>2020-12-10T08:33:29Z</time>
      </trkpt>
      <trkpt lat="44.83907" lon="5.0562">
        <ele>429.85</ele>
        <time>2020-12-10T08:33:38Z</time>
      </trkpt>
      <trkpt lat="44.83898" lon="5.05635">
        <ele>432.25</ele>
        <time>2020-12-10T08:33:51Z</time>
      </trkpt>
      <trkpt lat="44.83886" lon="5.05646">
        <ele>431.77</ele>
        <time>2020-12-10T08:34:01Z</time>
      </trkpt>
      <trkpt lat="44.83879" lon="5.05657">
        <ele>426.96</ele>
        <time>2020-12-10T08:34:13Z</time>
      </trkpt>
      <trkpt lat="44.83878" lon="5.05656">
        <ele>426.48</ele>
        <time>2020-12-10T08:34:15Z</time>
      </trkpt>
      <trkpt lat="44.8387" lon="5.05642">
        <ele>422.16</ele>
        <time>2020-12-10T08:34:26Z</time>
      </trkpt>
      <trkpt lat="44.83865" lon="5.0564">
        <ele>421.68</ele>
        <time>2020-12-10T08:34:30Z</time>
      </trkpt>
      <trkpt lat="44.83858" lon="5.05637">
        <ele>421.19</ele>
        <time>2020-12-10T08:34:37Z</time>
      </trkpt>
      <trkpt lat="44.83842" lon="5.05634">
        <ele>422.16</ele>
        <time>2020-12-10T08:34:52Z</time>
      </trkpt>
      <trkpt lat="44.83834" lon="5.05628">
        <ele>421.19</ele>
        <time>2020-12-10T08:35:05Z</time>
      </trkpt>
      <trkpt lat="44.83833" lon="5.05631">
        <ele>418.79</ele>
        <time>2020-12-10T08:35:16Z</time>
      </trkpt>
      <trkpt lat="44.83834" lon="5.05634">
        <ele>413.98</ele>
        <time>2020-12-10T08:35:55Z</time>
      </trkpt>
      <trkpt lat="44.83835" lon="5.0563">
        <ele>414.47</ele>
        <time>2020-12-10T08:36:36Z</time>
      </trkpt>
      <trkpt lat="44.83835" lon="5.05629">
        <ele>417.83</ele>
        <time>2020-12-10T08:37:09Z</time>
      </trkpt>
      <trkpt lat="44.83835" lon="5.05626">
        <ele>418.79</ele>
        <time>2020-12-10T08:37:27Z</time>
      </trkpt>
      <trkpt lat="44.83837" lon="5.05623">
        <ele>417.35</ele>
        <time>2020-12-10T08:37:31Z</time>
      </trkpt>
      <trkpt lat="44.83836" lon="5.05614">
        <ele>416.87</ele>
        <time>2020-12-10T08:37:36Z</time>
      </trkpt>
      <trkpt lat="44.8384" lon="5.05601">
        <ele>416.87</ele>
        <time>2020-12-10T08:37:47Z</time>
      </trkpt>
      <trkpt lat="44.8385" lon="5.05587">
        <ele>416.87</ele>
        <time>2020-12-10T08:38:00Z</time>
      </trkpt>
      <trkpt lat="44.83852" lon="5.05584">
        <ele>416.87</ele>
        <time>2020-12-10T08:38:03Z</time>
      </trkpt>
      <trkpt lat="44.83854" lon="5.05578">
        <ele>416.87</ele>
        <time>2020-12-10T08:38:06Z</time>
      </trkpt>
      <trkpt lat="44.83858" lon="5.05572">
        <ele>417.35</ele>
        <time>2020-12-10T08:38:11Z</time>
      </trkpt>
      <trkpt lat="44.83856" lon="5.05551">
        <ele>420.23</ele>
        <time>2020-12-10T08:38:24Z</time>
      </trkpt>
      <trkpt lat="44.83862" lon="5.05533">
        <ele>419.27</ele>
        <time>2020-12-10T08:38:35Z</time>
      </trkpt>
      <trkpt lat="44.83864" lon="5.0553">
        <ele>418.79</ele>
        <time>2020-12-10T08:38:38Z</time>
      </trkpt>
      <trkpt lat="44.83869" lon="5.05522">
        <ele>418.31</ele>
        <time>2020-12-10T08:38:43Z</time>
      </trkpt>
      <trkpt lat="44.83876" lon="5.05507">
        <ele>416.39</ele>
        <time>2020-12-10T08:38:55Z</time>
      </trkpt>
      <trkpt lat="44.83877" lon="5.05505">
        <ele>415.91</ele>
        <time>2020-12-10T08:38:57Z</time>
      </trkpt>
      <trkpt lat="44.83882" lon="5.05498">
        <ele>415.91</ele>
        <time>2020-12-10T08:39:02Z</time>
      </trkpt>
      <trkpt lat="44.83888" lon="5.05477">
        <ele>416.39</ele>
        <time>2020-12-10T08:39:14Z</time>
      </trkpt>
      <trkpt lat="44.83888" lon="5.05475">
        <ele>416.87</ele>
        <time>2020-12-10T08:39:17Z</time>
      </trkpt>
      <trkpt lat="44.83885" lon="5.05466">
        <ele>418.31</ele>
        <time>2020-12-10T08:39:23Z</time>
      </trkpt>
      <trkpt lat="44.83892" lon="5.05455">
        <ele>420.23</ele>
        <time>2020-12-10T08:39:31Z</time>
      </trkpt>
      <trkpt lat="44.83894" lon="5.05446">
        <ele>420.23</ele>
        <time>2020-12-10T08:39:37Z</time>
      </trkpt>
      <trkpt lat="44.83897" lon="5.0544">
        <ele>420.71</ele>
        <time>2020-12-10T08:39:49Z</time>
      </trkpt>
      <trkpt lat="44.83897" lon="5.05446">
        <ele>419.27</ele>
        <time>2020-12-10T08:39:59Z</time>
      </trkpt>
      <trkpt lat="44.83896" lon="5.05426">
        <ele>419.75</ele>
        <time>2020-12-10T08:40:11Z</time>
      </trkpt>
      <trkpt lat="44.83899" lon="5.0541">
        <ele>419.75</ele>
        <time>2020-12-10T08:40:20Z</time>
      </trkpt>
      <trkpt lat="44.83901" lon="5.05397">
        <ele>419.75</ele>
        <time>2020-12-10T08:40:27Z</time>
      </trkpt>
      <trkpt lat="44.83902" lon="5.05387">
        <ele>420.23</ele>
        <time>2020-12-10T08:40:33Z</time>
      </trkpt>
      <trkpt lat="44.83901" lon="5.0538">
        <ele>421.19</ele>
        <time>2020-12-10T08:40:37Z</time>
      </trkpt>
      <trkpt lat="44.83899" lon="5.05355">
        <ele>421.68</ele>
        <time>2020-12-10T08:40:51Z</time>
      </trkpt>
      <trkpt lat="44.83898" lon="5.05336">
        <ele>423.6</ele>
        <time>2020-12-10T08:41:03Z</time>
      </trkpt>
      <trkpt lat="44.83894" lon="5.05316">
        <ele>426</ele>
        <time>2020-12-10T08:41:15Z</time>
      </trkpt>
      <trkpt lat="44.83893" lon="5.05293">
        <ele>425.04</ele>
        <time>2020-12-10T08:41:27Z</time>
      </trkpt>
      <trkpt lat="44.83892" lon="5.05278">
        <ele>424.56</ele>
        <time>2020-12-10T08:41:36Z</time>
      </trkpt>
      <trkpt lat="44.83883" lon="5.0526">
        <ele>422.64</ele>
        <time>2020-12-10T08:41:48Z</time>
      </trkpt>
      <trkpt lat="44.83883" lon="5.05258">
        <ele>422.64</ele>
        <time>2020-12-10T08:41:49Z</time>
      </trkpt>
      <trkpt lat="44.83874" lon="5.05243">
        <ele>422.16</ele>
        <time>2020-12-10T08:42:00Z</time>
      </trkpt>
      <trkpt lat="44.83867" lon="5.05235">
        <ele>422.16</ele>
        <time>2020-12-10T08:42:07Z</time>
      </trkpt>
      <trkpt lat="44.83862" lon="5.05226">
        <ele>421.68</ele>
        <time>2020-12-10T08:42:14Z</time>
      </trkpt>
      <trkpt lat="44.83856" lon="5.0522">
        <ele>422.16</ele>
        <time>2020-12-10T08:42:20Z</time>
      </trkpt>
      <trkpt lat="44.83847" lon="5.05202">
        <ele>422.64</ele>
        <time>2020-12-10T08:42:33Z</time>
      </trkpt>
      <trkpt lat="44.83841" lon="5.05182">
        <ele>421.68</ele>
        <time>2020-12-10T08:42:45Z</time>
      </trkpt>
      <trkpt lat="44.83839" lon="5.05153">
        <ele>421.68</ele>
        <time>2020-12-10T08:43:04Z</time>
      </trkpt>
      <trkpt lat="44.8384" lon="5.05147">
        <ele>421.68</ele>
        <time>2020-12-10T08:43:08Z</time>
      </trkpt>
      <trkpt lat="44.83841" lon="5.05142">
        <ele>421.68</ele>
        <time>2020-12-10T08:43:11Z</time>
      </trkpt>
      <trkpt lat="44.83838" lon="5.05128">
        <ele>420.71</ele>
        <time>2020-12-10T08:43:19Z</time>
      </trkpt>
      <trkpt lat="44.83834" lon="5.05121">
        <ele>420.71</ele>
        <time>2020-12-10T08:43:23Z</time>
      </trkpt>
      <trkpt lat="44.83822" lon="5.05104">
        <ele>421.68</ele>
        <time>2020-12-10T08:43:36Z</time>
      </trkpt>
      <trkpt lat="44.83808" lon="5.05094">
        <ele>421.68</ele>
        <time>2020-12-10T08:43:48Z</time>
      </trkpt>
      <trkpt lat="44.83799" lon="5.05084">
        <ele>420.71</ele>
        <time>2020-12-10T08:43:58Z</time>
      </trkpt>
      <trkpt lat="44.83798" lon="5.0508">
        <ele>423.12</ele>
        <time>2020-12-10T08:44:15Z</time>
      </trkpt>
      <trkpt lat="44.83796" lon="5.05082">
        <ele>421.19</ele>
        <time>2020-12-10T08:44:41Z</time>
      </trkpt>
      <trkpt lat="44.83796" lon="5.05081">
        <ele>420.71</ele>
        <time>2020-12-10T08:45:04Z</time>
      </trkpt>
      <trkpt lat="44.83794" lon="5.05073">
        <ele>426.48</ele>
        <time>2020-12-10T08:45:29Z</time>
      </trkpt>
      <trkpt lat="44.83797" lon="5.05064">
        <ele>431.29</ele>
        <time>2020-12-10T08:45:55Z</time>
      </trkpt>
      <trkpt lat="44.83797" lon="5.05063">
        <ele>432.73</ele>
        <time>2020-12-10T08:46:27Z</time>
      </trkpt>
      <trkpt lat="44.83797" lon="5.05069">
        <ele>431.29</ele>
        <time>2020-12-10T08:46:51Z</time>
      </trkpt>
      <trkpt lat="44.83795" lon="5.05073">
        <ele>426.96</ele>
        <time>2020-12-10T08:47:18Z</time>
      </trkpt>
      <trkpt lat="44.83796" lon="5.05076">
        <ele>425.04</ele>
        <time>2020-12-10T08:47:44Z</time>
      </trkpt>
      <trkpt lat="44.83794" lon="5.05079">
        <ele>423.12</ele>
        <time>2020-12-10T08:48:06Z</time>
      </trkpt>
      <trkpt lat="44.83795" lon="5.05079">
        <ele>421.19</ele>
        <time>2020-12-10T08:48:25Z</time>
      </trkpt>
      <trkpt lat="44.83797" lon="5.05077">
        <ele>420.23</ele>
        <time>2020-12-10T08:48:44Z</time>
      </trkpt>
      <trkpt lat="44.83797" lon="5.05078">
        <ele>420.71</ele>
        <time>2020-12-10T08:48:49Z</time>
      </trkpt>
      <trkpt lat="44.83798" lon="5.05078">
        <ele>420.71</ele>
        <time>2020-12-10T08:49:02Z</time>
      </trkpt>
      <trkpt lat="44.83798" lon="5.05077">
        <ele>419.27</ele>
        <time>2020-12-10T08:49:17Z</time>
      </trkpt>
      <trkpt lat="44.83798" lon="5.05075">
        <ele>416.87</ele>
        <time>2020-12-10T08:49:37Z</time>
      </trkpt>
      <trkpt lat="44.83798" lon="5.05077">
        <ele>418.31</ele>
        <time>2020-12-10T08:49:44Z</time>
      </trkpt>
      <trkpt lat="44.83798" lon="5.05075">
        <ele>421.19</ele>
        <time>2020-12-10T08:50:08Z</time>
      </trkpt>
      <trkpt lat="44.83798" lon="5.05076">
        <ele>421.68</ele>
        <time>2020-12-10T08:50:29Z</time>
      </trkpt>
      <trkpt lat="44.83798" lon="5.05073">
        <ele>421.68</ele>
        <time>2020-12-10T08:50:38Z</time>
      </trkpt>
      <trkpt lat="44.83803" lon="5.05056">
        <ele>422.16</ele>
        <time>2020-12-10T08:50:50Z</time>
      </trkpt>
      <trkpt lat="44.83802" lon="5.05032">
        <ele>421.68</ele>
        <time>2020-12-10T08:51:02Z</time>
      </trkpt>
      <trkpt lat="44.838" lon="5.05024">
        <ele>421.19</ele>
        <time>2020-12-10T08:51:06Z</time>
      </trkpt>
      <trkpt lat="44.83796" lon="5.05009">
        <ele>420.71</ele>
        <time>2020-12-10T08:51:14Z</time>
      </trkpt>
      <trkpt lat="44.83793" lon="5.05001">
        <ele>418.79</ele>
        <time>2020-12-10T08:51:20Z</time>
      </trkpt>
      <trkpt lat="44.83782" lon="5.04978">
        <ele>418.31</ele>
        <time>2020-12-10T08:51:33Z</time>
      </trkpt>
      <trkpt lat="44.8378" lon="5.04975">
        <ele>417.83</ele>
        <time>2020-12-10T08:51:36Z</time>
      </trkpt>
      <trkpt lat="44.83777" lon="5.04971">
        <ele>416.87</ele>
        <time>2020-12-10T08:51:39Z</time>
      </trkpt>
      <trkpt lat="44.83774" lon="5.04963">
        <ele>415.43</ele>
        <time>2020-12-10T08:51:44Z</time>
      </trkpt>
      <trkpt lat="44.83766" lon="5.0495">
        <ele>413.98</ele>
        <time>2020-12-10T08:51:54Z</time>
      </trkpt>
      <trkpt lat="44.83751" lon="5.04936">
        <ele>412.06</ele>
        <time>2020-12-10T08:52:08Z</time>
      </trkpt>
      <trkpt lat="44.83748" lon="5.04934">
        <ele>412.54</ele>
        <time>2020-12-10T08:52:10Z</time>
      </trkpt>
      <trkpt lat="44.83739" lon="5.04923">
        <ele>413.5</ele>
        <time>2020-12-10T08:52:20Z</time>
      </trkpt>
      <trkpt lat="44.83723" lon="5.04916">
        <ele>409.18</ele>
        <time>2020-12-10T08:52:35Z</time>
      </trkpt>
      <trkpt lat="44.8371" lon="5.0491">
        <ele>405.81</ele>
        <time>2020-12-10T08:52:47Z</time>
      </trkpt>
      <trkpt lat="44.83697" lon="5.04903">
        <ele>402.93</ele>
        <time>2020-12-10T08:53:00Z</time>
      </trkpt>
      <trkpt lat="44.83682" lon="5.04899">
        <ele>399.08</ele>
        <time>2020-12-10T08:53:15Z</time>
      </trkpt>
      <trkpt lat="44.83668" lon="5.04896">
        <ele>396.2</ele>
        <time>2020-12-10T08:53:30Z</time>
      </trkpt>
      <trkpt lat="44.83665" lon="5.04895">
        <ele>395.72</ele>
        <time>2020-12-10T08:53:33Z</time>
      </trkpt>
      <trkpt lat="44.83662" lon="5.04897">
        <ele>395.24</ele>
        <time>2020-12-10T08:53:36Z</time>
      </trkpt>
      <trkpt lat="44.83656" lon="5.049">
        <ele>392.84</ele>
        <time>2020-12-10T08:53:43Z</time>
      </trkpt>
      <trkpt lat="44.83655" lon="5.04902">
        <ele>392.36</ele>
        <time>2020-12-10T08:53:45Z</time>
      </trkpt>
      <trkpt lat="44.83643" lon="5.04914">
        <ele>391.87</ele>
        <time>2020-12-10T08:53:59Z</time>
      </trkpt>
      <trkpt lat="44.83633" lon="5.04922">
        <ele>390.43</ele>
        <time>2020-12-10T08:54:10Z</time>
      </trkpt>
      <trkpt lat="44.83631" lon="5.04929">
        <ele>389.95</ele>
        <time>2020-12-10T08:54:15Z</time>
      </trkpt>
      <trkpt lat="44.8363" lon="5.04946">
        <ele>389.47</ele>
        <time>2020-12-10T08:54:28Z</time>
      </trkpt>
      <trkpt lat="44.83627" lon="5.0496">
        <ele>390.91</ele>
        <time>2020-12-10T08:54:41Z</time>
      </trkpt>
      <trkpt lat="44.83626" lon="5.04973">
        <ele>391.39</ele>
        <time>2020-12-10T08:54:53Z</time>
      </trkpt>
      <trkpt lat="44.83627" lon="5.04988">
        <ele>392.36</ele>
        <time>2020-12-10T08:55:08Z</time>
      </trkpt>
      <trkpt lat="44.83625" lon="5.05003">
        <ele>398.12</ele>
        <time>2020-12-10T08:55:24Z</time>
      </trkpt>
      <trkpt lat="44.83624" lon="5.05004">
        <ele>398.6</ele>
        <time>2020-12-10T08:55:27Z</time>
      </trkpt>
      <trkpt lat="44.83619" lon="5.05013">
        <ele>401.49</ele>
        <time>2020-12-10T08:55:38Z</time>
      </trkpt>
      <trkpt lat="44.83616" lon="5.0502">
        <ele>401.49</ele>
        <time>2020-12-10T08:55:47Z</time>
      </trkpt>
      <trkpt lat="44.83616" lon="5.0503">
        <ele>404.37</ele>
        <time>2020-12-10T08:55:57Z</time>
      </trkpt>
      <trkpt lat="44.83615" lon="5.05031">
        <ele>404.37</ele>
        <time>2020-12-10T08:55:58Z</time>
      </trkpt>
      <trkpt lat="44.83612" lon="5.05037">
        <ele>404.37</ele>
        <time>2020-12-10T08:56:06Z</time>
      </trkpt>
      <trkpt lat="44.83612" lon="5.05041">
        <ele>405.33</ele>
        <time>2020-12-10T08:56:11Z</time>
      </trkpt>
      <trkpt lat="44.83609" lon="5.0505">
        <ele>406.29</ele>
        <time>2020-12-10T08:56:23Z</time>
      </trkpt>
      <trkpt lat="44.83608" lon="5.05056">
        <ele>408.7</ele>
        <time>2020-12-10T08:56:30Z</time>
      </trkpt>
      <trkpt lat="44.83604" lon="5.05064">
        <ele>413.5</ele>
        <time>2020-12-10T08:56:40Z</time>
      </trkpt>
      <trkpt lat="44.83603" lon="5.05066">
        <ele>414.47</ele>
        <time>2020-12-10T08:56:43Z</time>
      </trkpt>
      <trkpt lat="44.83595" lon="5.05071">
        <ele>418.31</ele>
        <time>2020-12-10T08:56:56Z</time>
      </trkpt>
      <trkpt lat="44.83592" lon="5.05073">
        <ele>419.27</ele>
        <time>2020-12-10T08:57:00Z</time>
      </trkpt>
      <trkpt lat="44.83586" lon="5.05083">
        <ele>418.79</ele>
        <time>2020-12-10T08:57:13Z</time>
      </trkpt>
      <trkpt lat="44.8358" lon="5.05086">
        <ele>421.19</ele>
        <time>2020-12-10T08:57:24Z</time>
      </trkpt>
      <trkpt lat="44.83579" lon="5.05086">
        <ele>421.68</ele>
        <time>2020-12-10T08:57:27Z</time>
      </trkpt>
      <trkpt lat="44.83568" lon="5.05086">
        <ele>424.08</ele>
        <time>2020-12-10T08:57:40Z</time>
      </trkpt>
      <trkpt lat="44.83564" lon="5.05085">
        <ele>425.04</ele>
        <time>2020-12-10T08:57:45Z</time>
      </trkpt>
      <trkpt lat="44.83561" lon="5.05083">
        <ele>425.52</ele>
        <time>2020-12-10T08:57:48Z</time>
      </trkpt>
      <trkpt lat="44.83552" lon="5.05084">
        <ele>428.4</ele>
        <time>2020-12-10T08:58:00Z</time>
      </trkpt>
      <trkpt lat="44.83543" lon="5.05091">
        <ele>430.33</ele>
        <time>2020-12-10T08:58:13Z</time>
      </trkpt>
      <trkpt lat="44.83534" lon="5.05095">
        <ele>430.33</ele>
        <time>2020-12-10T08:58:24Z</time>
      </trkpt>
      <trkpt lat="44.83531" lon="5.05097">
        <ele>430.81</ele>
        <time>2020-12-10T08:58:27Z</time>
      </trkpt>
      <trkpt lat="44.83527" lon="5.05102">
        <ele>432.25</ele>
        <time>2020-12-10T08:58:36Z</time>
      </trkpt>
      <trkpt lat="44.83525" lon="5.0511">
        <ele>432.73</ele>
        <time>2020-12-10T08:58:42Z</time>
      </trkpt>
      <trkpt lat="44.83524" lon="5.0513">
        <ele>433.21</ele>
        <time>2020-12-10T08:58:57Z</time>
      </trkpt>
      <trkpt lat="44.83522" lon="5.05144">
        <ele>433.69</ele>
        <time>2020-12-10T08:59:07Z</time>
      </trkpt>
      <trkpt lat="44.83522" lon="5.05148">
        <ele>434.17</ele>
        <time>2020-12-10T08:59:09Z</time>
      </trkpt>
      <trkpt lat="44.83521" lon="5.05154">
        <ele>434.17</ele>
        <time>2020-12-10T08:59:14Z</time>
      </trkpt>
      <trkpt lat="44.83519" lon="5.05165">
        <ele>434.17</ele>
        <time>2020-12-10T08:59:23Z</time>
      </trkpt>
      <trkpt lat="44.83511" lon="5.05173">
        <ele>437.06</ele>
        <time>2020-12-10T08:59:35Z</time>
      </trkpt>
      <trkpt lat="44.835" lon="5.05185">
        <ele>438.02</ele>
        <time>2020-12-10T08:59:47Z</time>
      </trkpt>
      <trkpt lat="44.83497" lon="5.05188">
        <ele>438.02</ele>
        <time>2020-12-10T08:59:51Z</time>
      </trkpt>
      <trkpt lat="44.83487" lon="5.05202">
        <ele>438.5</ele>
        <time>2020-12-10T09:00:01Z</time>
      </trkpt>
      <trkpt lat="44.8348" lon="5.05218">
        <ele>438.02</ele>
        <time>2020-12-10T09:00:10Z</time>
      </trkpt>
      <trkpt lat="44.83477" lon="5.05221">
        <ele>437.06</ele>
        <time>2020-12-10T09:00:13Z</time>
      </trkpt>
      <trkpt lat="44.83465" lon="5.05227">
        <ele>437.06</ele>
        <time>2020-12-10T09:00:25Z</time>
      </trkpt>
      <trkpt lat="44.83455" lon="5.05234">
        <ele>437.54</ele>
        <time>2020-12-10T09:00:35Z</time>
      </trkpt>
      <trkpt lat="44.83454" lon="5.05235">
        <ele>437.54</ele>
        <time>2020-12-10T09:00:36Z</time>
      </trkpt>
      <trkpt lat="44.83443" lon="5.05248">
        <ele>437.06</ele>
        <time>2020-12-10T09:00:48Z</time>
      </trkpt>
      <trkpt lat="44.83431" lon="5.05252">
        <ele>439.94</ele>
        <time>2020-12-10T09:01:00Z</time>
      </trkpt>
      <trkpt lat="44.83421" lon="5.05264">
        <ele>440.9</ele>
        <time>2020-12-10T09:01:10Z</time>
      </trkpt>
      <trkpt lat="44.83421" lon="5.05265">
        <ele>440.9</ele>
        <time>2020-12-10T09:01:11Z</time>
      </trkpt>
      <trkpt lat="44.83417" lon="5.0528">
        <ele>441.38</ele>
        <time>2020-12-10T09:01:23Z</time>
      </trkpt>
      <trkpt lat="44.83416" lon="5.05282">
        <ele>441.86</ele>
        <time>2020-12-10T09:01:25Z</time>
      </trkpt>
      <trkpt lat="44.8342" lon="5.05296">
        <ele>443.31</ele>
        <time>2020-12-10T09:01:36Z</time>
      </trkpt>
      <trkpt lat="44.83421" lon="5.05307">
        <ele>443.79</ele>
        <time>2020-12-10T09:01:43Z</time>
      </trkpt>
      <trkpt lat="44.83418" lon="5.05318">
        <ele>443.79</ele>
        <time>2020-12-10T09:01:51Z</time>
      </trkpt>
      <trkpt lat="44.83413" lon="5.05337">
        <ele>443.31</ele>
        <time>2020-12-10T09:02:05Z</time>
      </trkpt>
      <trkpt lat="44.83408" lon="5.05348">
        <ele>443.79</ele>
        <time>2020-12-10T09:02:14Z</time>
      </trkpt>
      <trkpt lat="44.83405" lon="5.05359">
        <ele>444.75</ele>
        <time>2020-12-10T09:02:23Z</time>
      </trkpt>
      <trkpt lat="44.83402" lon="5.05369">
        <ele>446.19</ele>
        <time>2020-12-10T09:02:32Z</time>
      </trkpt>
      <trkpt lat="44.83402" lon="5.05376">
        <ele>446.67</ele>
        <time>2020-12-10T09:02:37Z</time>
      </trkpt>
      <trkpt lat="44.83402" lon="5.05385">
        <ele>446.67</ele>
        <time>2020-12-10T09:02:48Z</time>
      </trkpt>
      <trkpt lat="44.83406" lon="5.05395">
        <ele>447.63</ele>
        <time>2020-12-10T09:03:01Z</time>
      </trkpt>
      <trkpt lat="44.8341" lon="5.05409">
        <ele>449.55</ele>
        <time>2020-12-10T09:03:13Z</time>
      </trkpt>
      <trkpt lat="44.83413" lon="5.05415">
        <ele>450.03</ele>
        <time>2020-12-10T09:03:19Z</time>
      </trkpt>
      <trkpt lat="44.83416" lon="5.05422">
        <ele>452.44</ele>
        <time>2020-12-10T09:03:27Z</time>
      </trkpt>
      <trkpt lat="44.83424" lon="5.05435">
        <ele>451.48</ele>
        <time>2020-12-10T09:03:41Z</time>
      </trkpt>
      <trkpt lat="44.83427" lon="5.05447">
        <ele>452.44</ele>
        <time>2020-12-10T09:03:50Z</time>
      </trkpt>
      <trkpt lat="44.83425" lon="5.05462">
        <ele>454.36</ele>
        <time>2020-12-10T09:04:02Z</time>
      </trkpt>
      <trkpt lat="44.83422" lon="5.05476">
        <ele>455.8</ele>
        <time>2020-12-10T09:04:13Z</time>
      </trkpt>
      <trkpt lat="44.83418" lon="5.05492">
        <ele>457.24</ele>
        <time>2020-12-10T09:04:25Z</time>
      </trkpt>
      <trkpt lat="44.83416" lon="5.05505">
        <ele>458.69</ele>
        <time>2020-12-10T09:04:36Z</time>
      </trkpt>
      <trkpt lat="44.83415" lon="5.05522">
        <ele>460.13</ele>
        <time>2020-12-10T09:04:49Z</time>
      </trkpt>
      <trkpt lat="44.83415" lon="5.05524">
        <ele>461.09</ele>
        <time>2020-12-10T09:04:51Z</time>
      </trkpt>
      <trkpt lat="44.83413" lon="5.05534">
        <ele>463.01</ele>
        <time>2020-12-10T09:05:03Z</time>
      </trkpt>
      <trkpt lat="44.83411" lon="5.05543">
        <ele>465.42</ele>
        <time>2020-12-10T09:05:15Z</time>
      </trkpt>
      <trkpt lat="44.83406" lon="5.05555">
        <ele>466.38</ele>
        <time>2020-12-10T09:05:27Z</time>
      </trkpt>
      <trkpt lat="44.83403" lon="5.05567">
        <ele>468.3</ele>
        <time>2020-12-10T09:05:38Z</time>
      </trkpt>
      <trkpt lat="44.834" lon="5.05578">
        <ele>469.74</ele>
        <time>2020-12-10T09:05:49Z</time>
      </trkpt>
      <trkpt lat="44.83398" lon="5.05589">
        <ele>471.18</ele>
        <time>2020-12-10T09:06:00Z</time>
      </trkpt>
      <trkpt lat="44.83395" lon="5.056">
        <ele>471.66</ele>
        <time>2020-12-10T09:06:09Z</time>
      </trkpt>
      <trkpt lat="44.83394" lon="5.05609">
        <ele>472.14</ele>
        <time>2020-12-10T09:06:17Z</time>
      </trkpt>
      <trkpt lat="44.83393" lon="5.0562">
        <ele>473.11</ele>
        <time>2020-12-10T09:06:29Z</time>
      </trkpt>
      <trkpt lat="44.83393" lon="5.05623">
        <ele>473.11</ele>
        <time>2020-12-10T09:06:40Z</time>
      </trkpt>
      <trkpt lat="44.83391" lon="5.05634">
        <ele>473.59</ele>
        <time>2020-12-10T09:06:50Z</time>
      </trkpt>
      <trkpt lat="44.83389" lon="5.05647">
        <ele>474.07</ele>
        <time>2020-12-10T09:07:01Z</time>
      </trkpt>
      <trkpt lat="44.83388" lon="5.05657">
        <ele>475.03</ele>
        <time>2020-12-10T09:07:12Z</time>
      </trkpt>
      <trkpt lat="44.83388" lon="5.05666">
        <ele>477.91</ele>
        <time>2020-12-10T09:07:23Z</time>
      </trkpt>
      <trkpt lat="44.83385" lon="5.05675">
        <ele>480.32</ele>
        <time>2020-12-10T09:07:34Z</time>
      </trkpt>
      <trkpt lat="44.83384" lon="5.05685">
        <ele>481.76</ele>
        <time>2020-12-10T09:07:44Z</time>
      </trkpt>
      <trkpt lat="44.83385" lon="5.0569">
        <ele>482.24</ele>
        <time>2020-12-10T09:07:54Z</time>
      </trkpt>
      <trkpt lat="44.83384" lon="5.057">
        <ele>483.68</ele>
        <time>2020-12-10T09:08:06Z</time>
      </trkpt>
      <trkpt lat="44.83382" lon="5.05711">
        <ele>485.6</ele>
        <time>2020-12-10T09:08:18Z</time>
      </trkpt>
      <trkpt lat="44.83381" lon="5.05717">
        <ele>487.53</ele>
        <time>2020-12-10T09:08:29Z</time>
      </trkpt>
      <trkpt lat="44.83381" lon="5.0572">
        <ele>488.49</ele>
        <time>2020-12-10T09:08:39Z</time>
      </trkpt>
      <trkpt lat="44.83381" lon="5.05721">
        <ele>488.49</ele>
        <time>2020-12-10T09:08:41Z</time>
      </trkpt>
      <trkpt lat="44.83377" lon="5.05732">
        <ele>489.45</ele>
        <time>2020-12-10T09:08:53Z</time>
      </trkpt>
      <trkpt lat="44.83376" lon="5.05742">
        <ele>491.37</ele>
        <time>2020-12-10T09:09:04Z</time>
      </trkpt>
      <trkpt lat="44.83373" lon="5.05752">
        <ele>493.77</ele>
        <time>2020-12-10T09:09:15Z</time>
      </trkpt>
      <trkpt lat="44.8337" lon="5.05763">
        <ele>493.77</ele>
        <time>2020-12-10T09:09:26Z</time>
      </trkpt>
      <trkpt lat="44.8337" lon="5.05766">
        <ele>494.26</ele>
        <time>2020-12-10T09:09:29Z</time>
      </trkpt>
      <trkpt lat="44.83367" lon="5.05776">
        <ele>496.66</ele>
        <time>2020-12-10T09:09:41Z</time>
      </trkpt>
      <trkpt lat="44.83364" lon="5.05787">
        <ele>498.58</ele>
        <time>2020-12-10T09:09:51Z</time>
      </trkpt>
      <trkpt lat="44.83359" lon="5.05795">
        <ele>501.46</ele>
        <time>2020-12-10T09:10:03Z</time>
      </trkpt>
      <trkpt lat="44.83358" lon="5.05803">
        <ele>503.39</ele>
        <time>2020-12-10T09:10:15Z</time>
      </trkpt>
      <trkpt lat="44.83355" lon="5.05811">
        <ele>503.87</ele>
        <time>2020-12-10T09:10:26Z</time>
      </trkpt>
      <trkpt lat="44.83352" lon="5.05818">
        <ele>505.79</ele>
        <time>2020-12-10T09:10:38Z</time>
      </trkpt>
      <trkpt lat="44.83347" lon="5.05828">
        <ele>508.67</ele>
        <time>2020-12-10T09:10:50Z</time>
      </trkpt>
      <trkpt lat="44.83343" lon="5.05837">
        <ele>511.08</ele>
        <time>2020-12-10T09:11:01Z</time>
      </trkpt>
      <trkpt lat="44.83339" lon="5.05848">
        <ele>511.56</ele>
        <time>2020-12-10T09:11:12Z</time>
      </trkpt>
      <trkpt lat="44.83335" lon="5.05861">
        <ele>513</ele>
        <time>2020-12-10T09:11:24Z</time>
      </trkpt>
      <trkpt lat="44.83334" lon="5.05871">
        <ele>513.48</ele>
        <time>2020-12-10T09:11:34Z</time>
      </trkpt>
      <trkpt lat="44.83331" lon="5.0588">
        <ele>514.92</ele>
        <time>2020-12-10T09:11:43Z</time>
      </trkpt>
      <trkpt lat="44.83326" lon="5.05893">
        <ele>515.4</ele>
        <time>2020-12-10T09:11:56Z</time>
      </trkpt>
      <trkpt lat="44.83327" lon="5.0589">
        <ele>514.44</ele>
        <time>2020-12-10T09:12:01Z</time>
      </trkpt>
      <trkpt lat="44.83329" lon="5.05883">
        <ele>513.48</ele>
        <time>2020-12-10T09:12:07Z</time>
      </trkpt>
      <trkpt lat="44.83332" lon="5.05868">
        <ele>510.12</ele>
        <time>2020-12-10T09:12:21Z</time>
      </trkpt>
      <trkpt lat="44.83333" lon="5.05869">
        <ele>509.64</ele>
        <time>2020-12-10T09:12:31Z</time>
      </trkpt>
      <trkpt lat="44.83334" lon="5.05871">
        <ele>509.64</ele>
        <time>2020-12-10T09:12:34Z</time>
      </trkpt>
      <trkpt lat="44.8333" lon="5.05882">
        <ele>511.56</ele>
        <time>2020-12-10T09:12:45Z</time>
      </trkpt>
      <trkpt lat="44.83326" lon="5.05891">
        <ele>514.44</ele>
        <time>2020-12-10T09:12:57Z</time>
      </trkpt>
      <trkpt lat="44.83321" lon="5.05898">
        <ele>517.33</ele>
        <time>2020-12-10T09:13:08Z</time>
      </trkpt>
      <trkpt lat="44.83319" lon="5.05912">
        <ele>519.25</ele>
        <time>2020-12-10T09:13:19Z</time>
      </trkpt>
      <trkpt lat="44.83315" lon="5.05921">
        <ele>521.17</ele>
        <time>2020-12-10T09:13:30Z</time>
      </trkpt>
      <trkpt lat="44.83312" lon="5.05929">
        <ele>525.02</ele>
        <time>2020-12-10T09:13:42Z</time>
      </trkpt>
      <trkpt lat="44.83308" lon="5.0594">
        <ele>527.9</ele>
        <time>2020-12-10T09:13:54Z</time>
      </trkpt>
      <trkpt lat="44.83304" lon="5.05948">
        <ele>530.79</ele>
        <time>2020-12-10T09:14:06Z</time>
      </trkpt>
      <trkpt lat="44.83303" lon="5.05955">
        <ele>532.71</ele>
        <time>2020-12-10T09:14:16Z</time>
      </trkpt>
      <trkpt lat="44.833" lon="5.05968">
        <ele>534.63</ele>
        <time>2020-12-10T09:14:28Z</time>
      </trkpt>
      <trkpt lat="44.833" lon="5.05973">
        <ele>533.67</ele>
        <time>2020-12-10T09:14:39Z</time>
      </trkpt>
      <trkpt lat="44.83297" lon="5.05984">
        <ele>532.71</ele>
        <time>2020-12-10T09:14:55Z</time>
      </trkpt>
      <trkpt lat="44.83294" lon="5.05994">
        <ele>534.15</ele>
        <time>2020-12-10T09:15:08Z</time>
      </trkpt>
      <trkpt lat="44.83291" lon="5.06005">
        <ele>536.55</ele>
        <time>2020-12-10T09:15:19Z</time>
      </trkpt>
      <trkpt lat="44.8329" lon="5.06015">
        <ele>536.55</ele>
        <time>2020-12-10T09:15:28Z</time>
      </trkpt>
      <trkpt lat="44.8329" lon="5.06024">
        <ele>536.07</ele>
        <time>2020-12-10T09:15:39Z</time>
      </trkpt>
      <trkpt lat="44.83287" lon="5.06034">
        <ele>536.55</ele>
        <time>2020-12-10T09:15:52Z</time>
      </trkpt>
      <trkpt lat="44.83285" lon="5.06041">
        <ele>538.48</ele>
        <time>2020-12-10T09:16:03Z</time>
      </trkpt>
      <trkpt lat="44.83284" lon="5.06054">
        <ele>540.4</ele>
        <time>2020-12-10T09:16:15Z</time>
      </trkpt>
      <trkpt lat="44.83283" lon="5.06061">
        <ele>540.88</ele>
        <time>2020-12-10T09:16:24Z</time>
      </trkpt>
      <trkpt lat="44.83281" lon="5.06069">
        <ele>541.84</ele>
        <time>2020-12-10T09:16:33Z</time>
      </trkpt>
      <trkpt lat="44.83275" lon="5.06078">
        <ele>542.8</ele>
        <time>2020-12-10T09:16:45Z</time>
      </trkpt>
      <trkpt lat="44.83269" lon="5.06086">
        <ele>546.65</ele>
        <time>2020-12-10T09:16:58Z</time>
      </trkpt>
      <trkpt lat="44.83263" lon="5.06092">
        <ele>550.01</ele>
        <time>2020-12-10T09:17:08Z</time>
      </trkpt>
      <trkpt lat="44.83257" lon="5.061">
        <ele>552.9</ele>
        <time>2020-12-10T09:17:20Z</time>
      </trkpt>
      <trkpt lat="44.83251" lon="5.06106">
        <ele>556.26</ele>
        <time>2020-12-10T09:17:33Z</time>
      </trkpt>
      <trkpt lat="44.83244" lon="5.06114">
        <ele>558.66</ele>
        <time>2020-12-10T09:17:46Z</time>
      </trkpt>
      <trkpt lat="44.83237" lon="5.06122">
        <ele>559.14</ele>
        <time>2020-12-10T09:17:57Z</time>
      </trkpt>
      <trkpt lat="44.83231" lon="5.06133">
        <ele>559.62</ele>
        <time>2020-12-10T09:18:09Z</time>
      </trkpt>
      <trkpt lat="44.83229" lon="5.06135">
        <ele>560.11</ele>
        <time>2020-12-10T09:18:13Z</time>
      </trkpt>
      <trkpt lat="44.83223" lon="5.06145">
        <ele>562.51</ele>
        <time>2020-12-10T09:18:25Z</time>
      </trkpt>
      <trkpt lat="44.83218" lon="5.06153">
        <ele>564.43</ele>
        <time>2020-12-10T09:18:36Z</time>
      </trkpt>
      <trkpt lat="44.83213" lon="5.06164">
        <ele>565.39</ele>
        <time>2020-12-10T09:18:48Z</time>
      </trkpt>
      <trkpt lat="44.83207" lon="5.06176">
        <ele>565.87</ele>
        <time>2020-12-10T09:18:57Z</time>
      </trkpt>
      <trkpt lat="44.832" lon="5.06186">
        <ele>567.32</ele>
        <time>2020-12-10T09:19:08Z</time>
      </trkpt>
      <trkpt lat="44.83197" lon="5.06191">
        <ele>567.32</ele>
        <time>2020-12-10T09:19:14Z</time>
      </trkpt>
      <trkpt lat="44.83191" lon="5.06201">
        <ele>568.76</ele>
        <time>2020-12-10T09:19:24Z</time>
      </trkpt>
      <trkpt lat="44.83181" lon="5.0621">
        <ele>571.64</ele>
        <time>2020-12-10T09:19:38Z</time>
      </trkpt>
      <trkpt lat="44.83167" lon="5.06214">
        <ele>570.2</ele>
        <time>2020-12-10T09:19:55Z</time>
      </trkpt>
      <trkpt lat="44.83154" lon="5.06211">
        <ele>568.76</ele>
        <time>2020-12-10T09:20:12Z</time>
      </trkpt>
      <trkpt lat="44.83148" lon="5.0621">
        <ele>568.28</ele>
        <time>2020-12-10T09:20:23Z</time>
      </trkpt>
      <trkpt lat="44.83145" lon="5.06208">
        <ele>566.83</ele>
        <time>2020-12-10T09:21:00Z</time>
      </trkpt>
      <trkpt lat="44.83146" lon="5.06208">
        <ele>571.64</ele>
        <time>2020-12-10T09:21:28Z</time>
      </trkpt>
      <trkpt lat="44.83149" lon="5.06211">
        <ele>570.68</ele>
        <time>2020-12-10T09:22:02Z</time>
      </trkpt>
      <trkpt lat="44.8315" lon="5.0621">
        <ele>570.68</ele>
        <time>2020-12-10T09:22:24Z</time>
      </trkpt>
      <trkpt lat="44.83149" lon="5.0621">
        <ele>571.16</ele>
        <time>2020-12-10T09:22:29Z</time>
      </trkpt>
      <trkpt lat="44.83148" lon="5.06209">
        <ele>571.16</ele>
        <time>2020-12-10T09:22:39Z</time>
      </trkpt>
      <trkpt lat="44.83143" lon="5.06207">
        <ele>571.16</ele>
        <time>2020-12-10T09:22:56Z</time>
      </trkpt>
      <trkpt lat="44.83136" lon="5.06209">
        <ele>568.76</ele>
        <time>2020-12-10T09:23:05Z</time>
      </trkpt>
      <trkpt lat="44.83126" lon="5.06211">
        <ele>567.8</ele>
        <time>2020-12-10T09:23:17Z</time>
      </trkpt>
      <trkpt lat="44.83125" lon="5.06212">
        <ele>567.32</ele>
        <time>2020-12-10T09:23:18Z</time>
      </trkpt>
      <trkpt lat="44.83113" lon="5.06213">
        <ele>567.32</ele>
        <time>2020-12-10T09:23:31Z</time>
      </trkpt>
      <trkpt lat="44.83099" lon="5.06216">
        <ele>569.24</ele>
        <time>2020-12-10T09:23:45Z</time>
      </trkpt>
      <trkpt lat="44.83088" lon="5.06219">
        <ele>572.12</ele>
        <time>2020-12-10T09:23:55Z</time>
      </trkpt>
      <trkpt lat="44.83075" lon="5.06225">
        <ele>575.97</ele>
        <time>2020-12-10T09:24:09Z</time>
      </trkpt>
      <trkpt lat="44.8306" lon="5.0623">
        <ele>578.85</ele>
        <time>2020-12-10T09:24:22Z</time>
      </trkpt>
      <trkpt lat="44.83055" lon="5.06232">
        <ele>578.85</ele>
        <time>2020-12-10T09:24:26Z</time>
      </trkpt>
      <trkpt lat="44.83047" lon="5.06237">
        <ele>578.37</ele>
        <time>2020-12-10T09:24:34Z</time>
      </trkpt>
      <trkpt lat="44.83032" lon="5.06245">
        <ele>576.45</ele>
        <time>2020-12-10T09:24:48Z</time>
      </trkpt>
      <trkpt lat="44.83019" lon="5.06254">
        <ele>574.53</ele>
        <time>2020-12-10T09:25:00Z</time>
      </trkpt>
      <trkpt lat="44.83008" lon="5.06259">
        <ele>573.08</ele>
        <time>2020-12-10T09:25:11Z</time>
      </trkpt>
      <trkpt lat="44.83004" lon="5.06261">
        <ele>573.56</ele>
        <time>2020-12-10T09:25:15Z</time>
      </trkpt>
      <trkpt lat="44.82988" lon="5.06267">
        <ele>573.56</ele>
        <time>2020-12-10T09:25:30Z</time>
      </trkpt>
      <trkpt lat="44.8298" lon="5.06269">
        <ele>573.56</ele>
        <time>2020-12-10T09:25:37Z</time>
      </trkpt>
      <trkpt lat="44.82972" lon="5.06274">
        <ele>573.56</ele>
        <time>2020-12-10T09:25:43Z</time>
      </trkpt>
      <trkpt lat="44.82965" lon="5.06275">
        <ele>572.6</ele>
        <time>2020-12-10T09:25:49Z</time>
      </trkpt>
      <trkpt lat="44.8296" lon="5.06277">
        <ele>572.12</ele>
        <time>2020-12-10T09:25:54Z</time>
      </trkpt>
      <trkpt lat="44.82949" lon="5.06277">
        <ele>570.2</ele>
        <time>2020-12-10T09:26:05Z</time>
      </trkpt>
      <trkpt lat="44.82931" lon="5.06276">
        <ele>567.8</ele>
        <time>2020-12-10T09:26:18Z</time>
      </trkpt>
      <trkpt lat="44.82924" lon="5.06274">
        <ele>567.8</ele>
        <time>2020-12-10T09:26:27Z</time>
      </trkpt>
      <trkpt lat="44.82922" lon="5.06274">
        <ele>567.8</ele>
        <time>2020-12-10T09:26:29Z</time>
      </trkpt>
      <trkpt lat="44.82912" lon="5.06267">
        <ele>572.12</ele>
        <time>2020-12-10T09:26:41Z</time>
      </trkpt>
      <trkpt lat="44.82894" lon="5.06255">
        <ele>573.08</ele>
        <time>2020-12-10T09:26:55Z</time>
      </trkpt>
      <trkpt lat="44.82882" lon="5.06243">
        <ele>571.64</ele>
        <time>2020-12-10T09:27:07Z</time>
      </trkpt>
      <trkpt lat="44.82875" lon="5.06229">
        <ele>571.64</ele>
        <time>2020-12-10T09:27:21Z</time>
      </trkpt>
      <trkpt lat="44.82862" lon="5.06222">
        <ele>567.8</ele>
        <time>2020-12-10T09:27:33Z</time>
      </trkpt>
      <trkpt lat="44.82847" lon="5.06217">
        <ele>562.99</ele>
        <time>2020-12-10T09:27:45Z</time>
      </trkpt>
      <trkpt lat="44.82847" lon="5.06216">
        <ele>562.99</ele>
        <time>2020-12-10T09:27:46Z</time>
      </trkpt>
      <trkpt lat="44.82836" lon="5.06219">
        <ele>559.14</ele>
        <time>2020-12-10T09:27:58Z</time>
      </trkpt>
      <trkpt lat="44.82826" lon="5.06222">
        <ele>557.22</ele>
        <time>2020-12-10T09:28:08Z</time>
      </trkpt>
      <trkpt lat="44.82819" lon="5.06226">
        <ele>556.74</ele>
        <time>2020-12-10T09:28:15Z</time>
      </trkpt>
      <trkpt lat="44.82806" lon="5.06237">
        <ele>556.74</ele>
        <time>2020-12-10T09:28:28Z</time>
      </trkpt>
      <trkpt lat="44.828" lon="5.06245">
        <ele>558.18</ele>
        <time>2020-12-10T09:28:38Z</time>
      </trkpt>
      <trkpt lat="44.82794" lon="5.06251">
        <ele>556.74</ele>
        <time>2020-12-10T09:28:51Z</time>
      </trkpt>
      <trkpt lat="44.82792" lon="5.06251">
        <ele>556.74</ele>
        <time>2020-12-10T09:28:53Z</time>
      </trkpt>
      <trkpt lat="44.82784" lon="5.06262">
        <ele>553.38</ele>
        <time>2020-12-10T09:29:06Z</time>
      </trkpt>
      <trkpt lat="44.82774" lon="5.06272">
        <ele>551.93</ele>
        <time>2020-12-10T09:29:19Z</time>
      </trkpt>
      <trkpt lat="44.82765" lon="5.06279">
        <ele>550.97</ele>
        <time>2020-12-10T09:29:30Z</time>
      </trkpt>
      <trkpt lat="44.82764" lon="5.06281">
        <ele>550.97</ele>
        <time>2020-12-10T09:29:33Z</time>
      </trkpt>
      <trkpt lat="44.82758" lon="5.0629">
        <ele>551.93</ele>
        <time>2020-12-10T09:29:43Z</time>
      </trkpt>
      <trkpt lat="44.8275" lon="5.06296">
        <ele>552.41</ele>
        <time>2020-12-10T09:29:51Z</time>
      </trkpt>
      <trkpt lat="44.82746" lon="5.06302">
        <ele>552.9</ele>
        <time>2020-12-10T09:29:57Z</time>
      </trkpt>
      <trkpt lat="44.82737" lon="5.06323">
        <ele>550.97</ele>
        <time>2020-12-10T09:30:10Z</time>
      </trkpt>
      <trkpt lat="44.82729" lon="5.06329">
        <ele>547.13</ele>
        <time>2020-12-10T09:30:21Z</time>
      </trkpt>
      <trkpt lat="44.82722" lon="5.06311">
        <ele>545.69</ele>
        <time>2020-12-10T09:30:33Z</time>
      </trkpt>
      <trkpt lat="44.82721" lon="5.06294">
        <ele>541.36</ele>
        <time>2020-12-10T09:30:44Z</time>
      </trkpt>
      <trkpt lat="44.82719" lon="5.06284">
        <ele>540.4</ele>
        <time>2020-12-10T09:30:50Z</time>
      </trkpt>
      <trkpt lat="44.82718" lon="5.06279">
        <ele>539.92</ele>
        <time>2020-12-10T09:30:53Z</time>
      </trkpt>
      <trkpt lat="44.82717" lon="5.06271">
        <ele>540.4</ele>
        <time>2020-12-10T09:30:58Z</time>
      </trkpt>
      <trkpt lat="44.82715" lon="5.06266">
        <ele>541.36</ele>
        <time>2020-12-10T09:31:01Z</time>
      </trkpt>
      <trkpt lat="44.82714" lon="5.06263">
        <ele>541.84</ele>
        <time>2020-12-10T09:31:03Z</time>
      </trkpt>
      <trkpt lat="44.82712" lon="5.06249">
        <ele>540.88</ele>
        <time>2020-12-10T09:31:12Z</time>
      </trkpt>
      <trkpt lat="44.82711" lon="5.06246">
        <ele>540.88</ele>
        <time>2020-12-10T09:31:14Z</time>
      </trkpt>
      <trkpt lat="44.82706" lon="5.06226">
        <ele>542.32</ele>
        <time>2020-12-10T09:31:27Z</time>
      </trkpt>
      <trkpt lat="44.82705" lon="5.06208">
        <ele>542.8</ele>
        <time>2020-12-10T09:31:39Z</time>
      </trkpt>
      <trkpt lat="44.82701" lon="5.06192">
        <ele>542.32</ele>
        <time>2020-12-10T09:31:49Z</time>
      </trkpt>
      <trkpt lat="44.82701" lon="5.06186">
        <ele>542.32</ele>
        <time>2020-12-10T09:31:53Z</time>
      </trkpt>
      <trkpt lat="44.827" lon="5.06171">
        <ele>543.76</ele>
        <time>2020-12-10T09:32:01Z</time>
      </trkpt>
      <trkpt lat="44.82701" lon="5.06165">
        <ele>543.76</ele>
        <time>2020-12-10T09:32:05Z</time>
      </trkpt>
      <trkpt lat="44.82702" lon="5.0616">
        <ele>544.24</ele>
        <time>2020-12-10T09:32:08Z</time>
      </trkpt>
      <trkpt lat="44.82702" lon="5.06152">
        <ele>544.24</ele>
        <time>2020-12-10T09:32:13Z</time>
      </trkpt>
      <trkpt lat="44.82703" lon="5.06133">
        <ele>544.72</ele>
        <time>2020-12-10T09:32:25Z</time>
      </trkpt>
      <trkpt lat="44.82703" lon="5.06124">
        <ele>543.76</ele>
        <time>2020-12-10T09:32:31Z</time>
      </trkpt>
      <trkpt lat="44.82701" lon="5.06101">
        <ele>543.28</ele>
        <time>2020-12-10T09:32:44Z</time>
      </trkpt>
      <trkpt lat="44.82701" lon="5.06086">
        <ele>540.4</ele>
        <time>2020-12-10T09:32:56Z</time>
      </trkpt>
      <trkpt lat="44.82701" lon="5.06075">
        <ele>540.4</ele>
        <time>2020-12-10T09:33:10Z</time>
      </trkpt>
      <trkpt lat="44.82702" lon="5.06074">
        <ele>540.4</ele>
        <time>2020-12-10T09:33:11Z</time>
      </trkpt>
      <trkpt lat="44.82701" lon="5.06066">
        <ele>538.48</ele>
        <time>2020-12-10T09:33:20Z</time>
      </trkpt>
      <trkpt lat="44.82702" lon="5.06069">
        <ele>537.99</ele>
        <time>2020-12-10T09:33:23Z</time>
      </trkpt>
      <trkpt lat="44.82701" lon="5.06078">
        <ele>538.96</ele>
        <time>2020-12-10T09:33:33Z</time>
      </trkpt>
      <trkpt lat="44.82703" lon="5.06062">
        <ele>539.92</ele>
        <time>2020-12-10T09:33:44Z</time>
      </trkpt>
      <trkpt lat="44.82704" lon="5.06052">
        <ele>539.92</ele>
        <time>2020-12-10T09:33:50Z</time>
      </trkpt>
      <trkpt lat="44.82706" lon="5.0603">
        <ele>537.51</ele>
        <time>2020-12-10T09:34:03Z</time>
      </trkpt>
      <trkpt lat="44.82706" lon="5.06024">
        <ele>537.51</ele>
        <time>2020-12-10T09:34:07Z</time>
      </trkpt>
      <trkpt lat="44.82702" lon="5.06011">
        <ele>539.44</ele>
        <time>2020-12-10T09:34:18Z</time>
      </trkpt>
      <trkpt lat="44.827" lon="5.0598">
        <ele>537.03</ele>
        <time>2020-12-10T09:34:36Z</time>
      </trkpt>
      <trkpt lat="44.827" lon="5.05975">
        <ele>536.07</ele>
        <time>2020-12-10T09:34:40Z</time>
      </trkpt>
      <trkpt lat="44.827" lon="5.05966">
        <ele>535.59</ele>
        <time>2020-12-10T09:34:46Z</time>
      </trkpt>
      <trkpt lat="44.82701" lon="5.05944">
        <ele>535.59</ele>
        <time>2020-12-10T09:35:00Z</time>
      </trkpt>
      <trkpt lat="44.82703" lon="5.05932">
        <ele>534.63</ele>
        <time>2020-12-10T09:35:09Z</time>
      </trkpt>
      <trkpt lat="44.82705" lon="5.05917">
        <ele>533.67</ele>
        <time>2020-12-10T09:35:21Z</time>
      </trkpt>
      <trkpt lat="44.82707" lon="5.05912">
        <ele>533.19</ele>
        <time>2020-12-10T09:35:24Z</time>
      </trkpt>
      <trkpt lat="44.82711" lon="5.05896">
        <ele>530.3</ele>
        <time>2020-12-10T09:35:36Z</time>
      </trkpt>
      <trkpt lat="44.82711" lon="5.05894">
        <ele>530.3</ele>
        <time>2020-12-10T09:35:37Z</time>
      </trkpt>
      <trkpt lat="44.82715" lon="5.05878">
        <ele>529.34</ele>
        <time>2020-12-10T09:35:49Z</time>
      </trkpt>
      <trkpt lat="44.82719" lon="5.05858">
        <ele>525.02</ele>
        <time>2020-12-10T09:36:05Z</time>
      </trkpt>
      <trkpt lat="44.82719" lon="5.0584">
        <ele>521.65</ele>
        <time>2020-12-10T09:36:21Z</time>
      </trkpt>
      <trkpt lat="44.82718" lon="5.05821">
        <ele>519.25</ele>
        <time>2020-12-10T09:36:38Z</time>
      </trkpt>
      <trkpt lat="44.82716" lon="5.05808">
        <ele>518.77</ele>
        <time>2020-12-10T09:36:58Z</time>
      </trkpt>
      <trkpt lat="44.82714" lon="5.0579">
        <ele>516.85</ele>
        <time>2020-12-10T09:37:15Z</time>
      </trkpt>
      <trkpt lat="44.82714" lon="5.0577">
        <ele>513</ele>
        <time>2020-12-10T09:37:34Z</time>
      </trkpt>
      <trkpt lat="44.82712" lon="5.05756">
        <ele>509.16</ele>
        <time>2020-12-10T09:37:52Z</time>
      </trkpt>
      <trkpt lat="44.8271" lon="5.05736">
        <ele>505.79</ele>
        <time>2020-12-10T09:38:13Z</time>
      </trkpt>
      <trkpt lat="44.82708" lon="5.05734">
        <ele>504.83</ele>
        <time>2020-12-10T09:38:18Z</time>
      </trkpt>
      <trkpt lat="44.82705" lon="5.05728">
        <ele>502.91</ele>
        <time>2020-12-10T09:38:31Z</time>
      </trkpt>
      <trkpt lat="44.82703" lon="5.05717">
        <ele>498.58</ele>
        <time>2020-12-10T09:38:47Z</time>
      </trkpt>
      <trkpt lat="44.82701" lon="5.05702">
        <ele>495.7</ele>
        <time>2020-12-10T09:39:04Z</time>
      </trkpt>
      <trkpt lat="44.82699" lon="5.05692">
        <ele>492.33</ele>
        <time>2020-12-10T09:39:20Z</time>
      </trkpt>
      <trkpt lat="44.82697" lon="5.05688">
        <ele>490.41</ele>
        <time>2020-12-10T09:39:41Z</time>
      </trkpt>
      <trkpt lat="44.82696" lon="5.0568">
        <ele>488.01</ele>
        <time>2020-12-10T09:39:52Z</time>
      </trkpt>
      <trkpt lat="44.82696" lon="5.05674">
        <ele>487.05</ele>
        <time>2020-12-10T09:40:09Z</time>
      </trkpt>
      <trkpt lat="44.82694" lon="5.05661">
        <ele>486.08</ele>
        <time>2020-12-10T09:40:25Z</time>
      </trkpt>
      <trkpt lat="44.82692" lon="5.05653">
        <ele>486.08</ele>
        <time>2020-12-10T09:40:30Z</time>
      </trkpt>
      <trkpt lat="44.82693" lon="5.05648">
        <ele>485.6</ele>
        <time>2020-12-10T09:40:33Z</time>
      </trkpt>
      <trkpt lat="44.82684" lon="5.05627">
        <ele>480.8</ele>
        <time>2020-12-10T09:40:48Z</time>
      </trkpt>
      <trkpt lat="44.82682" lon="5.05622">
        <ele>479.35</ele>
        <time>2020-12-10T09:41:00Z</time>
      </trkpt>
      <trkpt lat="44.82682" lon="5.05607">
        <ele>474.55</ele>
        <time>2020-12-10T09:41:11Z</time>
      </trkpt>
      <trkpt lat="44.82682" lon="5.05605">
        <ele>474.07</ele>
        <time>2020-12-10T09:41:13Z</time>
      </trkpt>
      <trkpt lat="44.82676" lon="5.05593">
        <ele>470.22</ele>
        <time>2020-12-10T09:41:26Z</time>
      </trkpt>
      <trkpt lat="44.82672" lon="5.05584">
        <ele>467.82</ele>
        <time>2020-12-10T09:41:39Z</time>
      </trkpt>
      <trkpt lat="44.82663" lon="5.05573">
        <ele>465.42</ele>
        <time>2020-12-10T09:41:55Z</time>
      </trkpt>
      <trkpt lat="44.82656" lon="5.05564">
        <ele>462.05</ele>
        <time>2020-12-10T09:42:09Z</time>
      </trkpt>
      <trkpt lat="44.82655" lon="5.05563">
        <ele>461.57</ele>
        <time>2020-12-10T09:42:10Z</time>
      </trkpt>
      <trkpt lat="44.82648" lon="5.05561">
        <ele>460.61</ele>
        <time>2020-12-10T09:42:18Z</time>
      </trkpt>
      <trkpt lat="44.82645" lon="5.05561">
        <ele>460.13</ele>
        <time>2020-12-10T09:42:21Z</time>
      </trkpt>
      <trkpt lat="44.82636" lon="5.0557">
        <ele>458.21</ele>
        <time>2020-12-10T09:42:35Z</time>
      </trkpt>
      <trkpt lat="44.82633" lon="5.05593">
        <ele>457.72</ele>
        <time>2020-12-10T09:42:49Z</time>
      </trkpt>
      <trkpt lat="44.82631" lon="5.05612">
        <ele>459.17</ele>
        <time>2020-12-10T09:43:03Z</time>
      </trkpt>
      <trkpt lat="44.82628" lon="5.05631">
        <ele>460.61</ele>
        <time>2020-12-10T09:43:16Z</time>
      </trkpt>
      <trkpt lat="44.82622" lon="5.05646">
        <ele>461.09</ele>
        <time>2020-12-10T09:43:27Z</time>
      </trkpt>
      <trkpt lat="44.82621" lon="5.05647">
        <ele>461.09</ele>
        <time>2020-12-10T09:43:28Z</time>
      </trkpt>
      <trkpt lat="44.82617" lon="5.05664">
        <ele>463.01</ele>
        <time>2020-12-10T09:43:41Z</time>
      </trkpt>
      <trkpt lat="44.82618" lon="5.05684">
        <ele>462.53</ele>
        <time>2020-12-10T09:43:56Z</time>
      </trkpt>
      <trkpt lat="44.82622" lon="5.05705">
        <ele>462.53</ele>
        <time>2020-12-10T09:44:09Z</time>
      </trkpt>
      <trkpt lat="44.82627" lon="5.05724">
        <ele>461.57</ele>
        <time>2020-12-10T09:44:20Z</time>
      </trkpt>
      <trkpt lat="44.82623" lon="5.05745">
        <ele>462.05</ele>
        <time>2020-12-10T09:44:33Z</time>
      </trkpt>
      <trkpt lat="44.82618" lon="5.05763">
        <ele>463.49</ele>
        <time>2020-12-10T09:44:45Z</time>
      </trkpt>
      <trkpt lat="44.82615" lon="5.05782">
        <ele>464.93</ele>
        <time>2020-12-10T09:44:57Z</time>
      </trkpt>
      <trkpt lat="44.82615" lon="5.05784">
        <ele>464.93</ele>
        <time>2020-12-10T09:44:58Z</time>
      </trkpt>
      <trkpt lat="44.8261" lon="5.05805">
        <ele>467.34</ele>
        <time>2020-12-10T09:45:12Z</time>
      </trkpt>
      <trkpt lat="44.82601" lon="5.0582">
        <ele>467.82</ele>
        <time>2020-12-10T09:45:25Z</time>
      </trkpt>
      <trkpt lat="44.82597" lon="5.05832">
        <ele>467.82</ele>
        <time>2020-12-10T09:45:36Z</time>
      </trkpt>
      <trkpt lat="44.82592" lon="5.05849">
        <ele>468.78</ele>
        <time>2020-12-10T09:45:48Z</time>
      </trkpt>
      <trkpt lat="44.82589" lon="5.05861">
        <ele>471.18</ele>
        <time>2020-12-10T09:46:02Z</time>
      </trkpt>
      <trkpt lat="44.82589" lon="5.05862">
        <ele>472.14</ele>
        <time>2020-12-10T09:46:06Z</time>
      </trkpt>
      <trkpt lat="44.82585" lon="5.05879">
        <ele>473.11</ele>
        <time>2020-12-10T09:46:19Z</time>
      </trkpt>
      <trkpt lat="44.82583" lon="5.05884">
        <ele>474.07</ele>
        <time>2020-12-10T09:46:23Z</time>
      </trkpt>
      <trkpt lat="44.82582" lon="5.05891">
        <ele>474.55</ele>
        <time>2020-12-10T09:46:27Z</time>
      </trkpt>
      <trkpt lat="44.82575" lon="5.05914">
        <ele>476.47</ele>
        <time>2020-12-10T09:46:43Z</time>
      </trkpt>
      <trkpt lat="44.82571" lon="5.05934">
        <ele>478.87</ele>
        <time>2020-12-10T09:46:59Z</time>
      </trkpt>
      <trkpt lat="44.82568" lon="5.05961">
        <ele>483.2</ele>
        <time>2020-12-10T09:47:16Z</time>
      </trkpt>
      <trkpt lat="44.82567" lon="5.05981">
        <ele>483.2</ele>
        <time>2020-12-10T09:47:28Z</time>
      </trkpt>
      <trkpt lat="44.82571" lon="5.06001">
        <ele>478.87</ele>
        <time>2020-12-10T09:47:39Z</time>
      </trkpt>
      <trkpt lat="44.8257" lon="5.06003">
        <ele>477.91</ele>
        <time>2020-12-10T09:47:40Z</time>
      </trkpt>
      <trkpt lat="44.82566" lon="5.06008">
        <ele>477.43</ele>
        <time>2020-12-10T09:47:44Z</time>
      </trkpt>
      <trkpt lat="44.82557" lon="5.06003">
        <ele>479.35</ele>
        <time>2020-12-10T09:47:53Z</time>
      </trkpt>
      <trkpt lat="44.82545" lon="5.06006">
        <ele>480.8</ele>
        <time>2020-12-10T09:48:05Z</time>
      </trkpt>
      <trkpt lat="44.82537" lon="5.06022">
        <ele>481.28</ele>
        <time>2020-12-10T09:48:20Z</time>
      </trkpt>
      <trkpt lat="44.82528" lon="5.06033">
        <ele>481.76</ele>
        <time>2020-12-10T09:48:31Z</time>
      </trkpt>
      <trkpt lat="44.82519" lon="5.0605">
        <ele>482.24</ele>
        <time>2020-12-10T09:48:47Z</time>
      </trkpt>
      <trkpt lat="44.8251" lon="5.06063">
        <ele>482.72</ele>
        <time>2020-12-10T09:49:03Z</time>
      </trkpt>
      <trkpt lat="44.82502" lon="5.06072">
        <ele>485.6</ele>
        <time>2020-12-10T09:49:16Z</time>
      </trkpt>
      <trkpt lat="44.82498" lon="5.06084">
        <ele>488.01</ele>
        <time>2020-12-10T09:49:29Z</time>
      </trkpt>
      <trkpt lat="44.82492" lon="5.06094">
        <ele>491.37</ele>
        <time>2020-12-10T09:49:42Z</time>
      </trkpt>
      <trkpt lat="44.82495" lon="5.06102">
        <ele>491.85</ele>
        <time>2020-12-10T09:50:05Z</time>
      </trkpt>
      <trkpt lat="44.82489" lon="5.06115">
        <ele>493.29</ele>
        <time>2020-12-10T09:50:21Z</time>
      </trkpt>
      <trkpt lat="44.82489" lon="5.06127">
        <ele>496.18</ele>
        <time>2020-12-10T09:50:30Z</time>
      </trkpt>
      <trkpt lat="44.82487" lon="5.06142">
        <ele>498.58</ele>
        <time>2020-12-10T09:50:44Z</time>
      </trkpt>
      <trkpt lat="44.82486" lon="5.06153">
        <ele>504.83</ele>
        <time>2020-12-10T09:50:58Z</time>
      </trkpt>
      <trkpt lat="44.82484" lon="5.06162">
        <ele>510.6</ele>
        <time>2020-12-10T09:51:11Z</time>
      </trkpt>
      <trkpt lat="44.82486" lon="5.06175">
        <ele>518.77</ele>
        <time>2020-12-10T09:51:26Z</time>
      </trkpt>
      <trkpt lat="44.82485" lon="5.0618">
        <ele>522.13</ele>
        <time>2020-12-10T09:51:54Z</time>
      </trkpt>
      <trkpt lat="44.82487" lon="5.0618">
        <ele>519.73</ele>
        <time>2020-12-10T09:52:25Z</time>
      </trkpt>
      <trkpt lat="44.82487" lon="5.06185">
        <ele>521.17</ele>
        <time>2020-12-10T09:52:56Z</time>
      </trkpt>
      <trkpt lat="44.82486" lon="5.06183">
        <ele>523.58</ele>
        <time>2020-12-10T09:53:26Z</time>
      </trkpt>
      <trkpt lat="44.82487" lon="5.06176">
        <ele>521.65</ele>
        <time>2020-12-10T09:53:58Z</time>
      </trkpt>
      <trkpt lat="44.82484" lon="5.06178">
        <ele>518.29</ele>
        <time>2020-12-10T09:54:27Z</time>
      </trkpt>
      <trkpt lat="44.82484" lon="5.06181">
        <ele>519.25</ele>
        <time>2020-12-10T09:54:49Z</time>
      </trkpt>
      <trkpt lat="44.82484" lon="5.06182">
        <ele>521.17</ele>
        <time>2020-12-10T09:55:02Z</time>
      </trkpt>
      <trkpt lat="44.82483" lon="5.06191">
        <ele>525.02</ele>
        <time>2020-12-10T09:55:14Z</time>
      </trkpt>
      <trkpt lat="44.82483" lon="5.06203">
        <ele>527.9</ele>
        <time>2020-12-10T09:55:28Z</time>
      </trkpt>
      <trkpt lat="44.82482" lon="5.06211">
        <ele>530.3</ele>
        <time>2020-12-10T09:55:40Z</time>
      </trkpt>
      <trkpt lat="44.82482" lon="5.06224">
        <ele>534.63</ele>
        <time>2020-12-10T09:55:51Z</time>
      </trkpt>
      <trkpt lat="44.82483" lon="5.06231">
        <ele>536.07</ele>
        <time>2020-12-10T09:55:57Z</time>
      </trkpt>
      <trkpt lat="44.82481" lon="5.06244">
        <ele>540.4</ele>
        <time>2020-12-10T09:56:09Z</time>
      </trkpt>
      <trkpt lat="44.82482" lon="5.0625">
        <ele>542.32</ele>
        <time>2020-12-10T09:56:20Z</time>
      </trkpt>
      <trkpt lat="44.82482" lon="5.0626">
        <ele>544.72</ele>
        <time>2020-12-10T09:56:31Z</time>
      </trkpt>
      <trkpt lat="44.82482" lon="5.06272">
        <ele>546.17</ele>
        <time>2020-12-10T09:56:43Z</time>
      </trkpt>
      <trkpt lat="44.8248" lon="5.06281">
        <ele>546.17</ele>
        <time>2020-12-10T09:56:56Z</time>
      </trkpt>
      <trkpt lat="44.82479" lon="5.06288">
        <ele>543.76</ele>
        <time>2020-12-10T09:57:10Z</time>
      </trkpt>
      <trkpt lat="44.82478" lon="5.06297">
        <ele>544.72</ele>
        <time>2020-12-10T09:57:21Z</time>
      </trkpt>
      <trkpt lat="44.82479" lon="5.0631">
        <ele>548.57</ele>
        <time>2020-12-10T09:57:34Z</time>
      </trkpt>
      <trkpt lat="44.82479" lon="5.06318">
        <ele>547.61</ele>
        <time>2020-12-10T09:57:45Z</time>
      </trkpt>
      <trkpt lat="44.82479" lon="5.06326">
        <ele>546.17</ele>
        <time>2020-12-10T09:57:57Z</time>
      </trkpt>
      <trkpt lat="44.82477" lon="5.06331">
        <ele>546.17</ele>
        <time>2020-12-10T09:58:09Z</time>
      </trkpt>
      <trkpt lat="44.82476" lon="5.06339">
        <ele>548.09</ele>
        <time>2020-12-10T09:58:20Z</time>
      </trkpt>
      <trkpt lat="44.82474" lon="5.06352">
        <ele>549.53</ele>
        <time>2020-12-10T09:58:34Z</time>
      </trkpt>
      <trkpt lat="44.82475" lon="5.06358">
        <ele>551.93</ele>
        <time>2020-12-10T09:58:54Z</time>
      </trkpt>
      <trkpt lat="44.82474" lon="5.06363">
        <ele>551.45</ele>
        <time>2020-12-10T09:59:07Z</time>
      </trkpt>
      <trkpt lat="44.82475" lon="5.06368">
        <ele>552.9</ele>
        <time>2020-12-10T09:59:11Z</time>
      </trkpt>
      <trkpt lat="44.82476" lon="5.06376">
        <ele>555.78</ele>
        <time>2020-12-10T09:59:22Z</time>
      </trkpt>
      <trkpt lat="44.82475" lon="5.0639">
        <ele>558.66</ele>
        <time>2020-12-10T09:59:36Z</time>
      </trkpt>
      <trkpt lat="44.82478" lon="5.06398">
        <ele>563.95</ele>
        <time>2020-12-10T09:59:50Z</time>
      </trkpt>
      <trkpt lat="44.82477" lon="5.06405">
        <ele>561.55</ele>
        <time>2020-12-10T10:00:04Z</time>
      </trkpt>
      <trkpt lat="44.82479" lon="5.06421">
        <ele>554.82</ele>
        <time>2020-12-10T10:00:15Z</time>
      </trkpt>
      <trkpt lat="44.8248" lon="5.06425">
        <ele>552.9</ele>
        <time>2020-12-10T10:00:20Z</time>
      </trkpt>
      <trkpt lat="44.8248" lon="5.06428">
        <ele>552.41</ele>
        <time>2020-12-10T10:00:22Z</time>
      </trkpt>
      <trkpt lat="44.8248" lon="5.06436">
        <ele>555.3</ele>
        <time>2020-12-10T10:00:33Z</time>
      </trkpt>
      <trkpt lat="44.82482" lon="5.0644">
        <ele>561.07</ele>
        <time>2020-12-10T10:00:46Z</time>
      </trkpt>
      <trkpt lat="44.82484" lon="5.06451">
        <ele>562.51</ele>
        <time>2020-12-10T10:00:57Z</time>
      </trkpt>
      <trkpt lat="44.82485" lon="5.06458">
        <ele>563.47</ele>
        <time>2020-12-10T10:01:06Z</time>
      </trkpt>
      <trkpt lat="44.82485" lon="5.06465">
        <ele>563.95</ele>
        <time>2020-12-10T10:01:16Z</time>
      </trkpt>
      <trkpt lat="44.82488" lon="5.06472">
        <ele>565.87</ele>
        <time>2020-12-10T10:01:32Z</time>
      </trkpt>
      <trkpt lat="44.82491" lon="5.06475">
        <ele>565.39</ele>
        <time>2020-12-10T10:01:44Z</time>
      </trkpt>
      <trkpt lat="44.82492" lon="5.06487">
        <ele>569.24</ele>
        <time>2020-12-10T10:01:57Z</time>
      </trkpt>
      <trkpt lat="44.82496" lon="5.06493">
        <ele>574.04</ele>
        <time>2020-12-10T10:02:15Z</time>
      </trkpt>
      <trkpt lat="44.82496" lon="5.06505">
        <ele>576.93</ele>
        <time>2020-12-10T10:02:30Z</time>
      </trkpt>
      <trkpt lat="44.825" lon="5.06519">
        <ele>578.85</ele>
        <time>2020-12-10T10:02:49Z</time>
      </trkpt>
      <trkpt lat="44.82506" lon="5.06527">
        <ele>580.77</ele>
        <time>2020-12-10T10:03:09Z</time>
      </trkpt>
      <trkpt lat="44.82505" lon="5.06546">
        <ele>582.22</ele>
        <time>2020-12-10T10:03:29Z</time>
      </trkpt>
      <trkpt lat="44.82498" lon="5.06555">
        <ele>582.22</ele>
        <time>2020-12-10T10:03:44Z</time>
      </trkpt>
      <trkpt lat="44.82495" lon="5.0655">
        <ele>584.62</ele>
        <time>2020-12-10T10:04:00Z</time>
      </trkpt>
      <trkpt lat="44.82493" lon="5.06548">
        <ele>584.14</ele>
        <time>2020-12-10T10:04:05Z</time>
      </trkpt>
      <trkpt lat="44.82482" lon="5.06543">
        <ele>580.77</ele>
        <time>2020-12-10T10:04:20Z</time>
      </trkpt>
      <trkpt lat="44.82473" lon="5.06537">
        <ele>579.33</ele>
        <time>2020-12-10T10:04:36Z</time>
      </trkpt>
      <trkpt lat="44.82462" lon="5.06529">
        <ele>578.85</ele>
        <time>2020-12-10T10:04:53Z</time>
      </trkpt>
      <trkpt lat="44.82458" lon="5.06528">
        <ele>579.81</ele>
        <time>2020-12-10T10:05:09Z</time>
      </trkpt>
      <trkpt lat="44.82453" lon="5.06526">
        <ele>581.73</ele>
        <time>2020-12-10T10:05:18Z</time>
      </trkpt>
      <trkpt lat="44.82445" lon="5.0652">
        <ele>584.62</ele>
        <time>2020-12-10T10:05:31Z</time>
      </trkpt>
      <trkpt lat="44.82437" lon="5.06511">
        <ele>590.87</ele>
        <time>2020-12-10T10:05:44Z</time>
      </trkpt>
      <trkpt lat="44.82427" lon="5.06505">
        <ele>599.04</ele>
        <time>2020-12-10T10:05:58Z</time>
      </trkpt>
      <trkpt lat="44.82416" lon="5.06501">
        <ele>600.48</ele>
        <time>2020-12-10T10:06:11Z</time>
      </trkpt>
      <trkpt lat="44.82409" lon="5.06492">
        <ele>600.48</ele>
        <time>2020-12-10T10:06:25Z</time>
      </trkpt>
      <trkpt lat="44.82411" lon="5.06488">
        <ele>598.08</ele>
        <time>2020-12-10T10:06:41Z</time>
      </trkpt>
      <trkpt lat="44.82406" lon="5.06482">
        <ele>592.31</ele>
        <time>2020-12-10T10:06:53Z</time>
      </trkpt>
      <trkpt lat="44.82397" lon="5.0647">
        <ele>589.91</ele>
        <time>2020-12-10T10:07:05Z</time>
      </trkpt>
      <trkpt lat="44.82392" lon="5.06457">
        <ele>588.46</ele>
        <time>2020-12-10T10:07:19Z</time>
      </trkpt>
      <trkpt lat="44.82377" lon="5.06435">
        <ele>587.02</ele>
        <time>2020-12-10T10:07:36Z</time>
      </trkpt>
      <trkpt lat="44.82373" lon="5.06425">
        <ele>587.02</ele>
        <time>2020-12-10T10:07:51Z</time>
      </trkpt>
      <trkpt lat="44.82373" lon="5.06425">
        <ele>585.58</ele>
        <time>2020-12-10T10:08:07Z</time>
      </trkpt>
      <trkpt lat="44.82374" lon="5.06417">
        <ele>584.14</ele>
        <time>2020-12-10T10:08:14Z</time>
      </trkpt>
      <trkpt lat="44.82375" lon="5.06407">
        <ele>582.7</ele>
        <time>2020-12-10T10:08:21Z</time>
      </trkpt>
      <trkpt lat="44.82374" lon="5.06391">
        <ele>581.73</ele>
        <time>2020-12-10T10:08:32Z</time>
      </trkpt>
      <trkpt lat="44.8237" lon="5.06365">
        <ele>579.81</ele>
        <time>2020-12-10T10:08:49Z</time>
      </trkpt>
      <trkpt lat="44.82369" lon="5.06354">
        <ele>577.41</ele>
        <time>2020-12-10T10:08:58Z</time>
      </trkpt>
      <trkpt lat="44.82368" lon="5.06327">
        <ele>573.56</ele>
        <time>2020-12-10T10:09:16Z</time>
      </trkpt>
      <trkpt lat="44.82365" lon="5.06307">
        <ele>572.12</ele>
        <time>2020-12-10T10:09:30Z</time>
      </trkpt>
      <trkpt lat="44.82364" lon="5.06291">
        <ele>570.68</ele>
        <time>2020-12-10T10:09:42Z</time>
      </trkpt>
      <trkpt lat="44.82366" lon="5.06269">
        <ele>566.35</ele>
        <time>2020-12-10T10:09:58Z</time>
      </trkpt>
      <trkpt lat="44.82364" lon="5.06251">
        <ele>563.95</ele>
        <time>2020-12-10T10:10:14Z</time>
      </trkpt>
      <trkpt lat="44.82363" lon="5.06232">
        <ele>559.62</ele>
        <time>2020-12-10T10:10:30Z</time>
      </trkpt>
      <trkpt lat="44.82362" lon="5.06212">
        <ele>556.26</ele>
        <time>2020-12-10T10:10:44Z</time>
      </trkpt>
      <trkpt lat="44.82358" lon="5.06201">
        <ele>555.78</ele>
        <time>2020-12-10T10:10:51Z</time>
      </trkpt>
      <trkpt lat="44.82345" lon="5.06201">
        <ele>555.3</ele>
        <time>2020-12-10T10:11:03Z</time>
      </trkpt>
      <trkpt lat="44.8234" lon="5.06203">
        <ele>555.3</ele>
        <time>2020-12-10T10:11:08Z</time>
      </trkpt>
      <trkpt lat="44.8233" lon="5.0621">
        <ele>552.9</ele>
        <time>2020-12-10T10:11:24Z</time>
      </trkpt>
      <trkpt lat="44.82328" lon="5.0621">
        <ele>552.41</ele>
        <time>2020-12-10T10:11:26Z</time>
      </trkpt>
      <trkpt lat="44.82325" lon="5.06212">
        <ele>551.93</ele>
        <time>2020-12-10T10:11:28Z</time>
      </trkpt>
      <trkpt lat="44.82312" lon="5.06218">
        <ele>551.45</ele>
        <time>2020-12-10T10:11:42Z</time>
      </trkpt>
      <trkpt lat="44.82291" lon="5.06233">
        <ele>549.53</ele>
        <time>2020-12-10T10:12:03Z</time>
      </trkpt>
      <trkpt lat="44.82277" lon="5.0623">
        <ele>549.53</ele>
        <time>2020-12-10T10:12:17Z</time>
      </trkpt>
      <trkpt lat="44.8226" lon="5.0623">
        <ele>548.09</ele>
        <time>2020-12-10T10:12:33Z</time>
      </trkpt>
      <trkpt lat="44.82257" lon="5.06249">
        <ele>543.28</ele>
        <time>2020-12-10T10:12:50Z</time>
      </trkpt>
      <trkpt lat="44.82258" lon="5.06273">
        <ele>538.96</ele>
        <time>2020-12-10T10:13:05Z</time>
      </trkpt>
      <trkpt lat="44.82258" lon="5.06293">
        <ele>536.55</ele>
        <time>2020-12-10T10:13:20Z</time>
      </trkpt>
      <trkpt lat="44.82256" lon="5.06315">
        <ele>535.11</ele>
        <time>2020-12-10T10:13:36Z</time>
      </trkpt>
      <trkpt lat="44.82255" lon="5.0633">
        <ele>535.11</ele>
        <time>2020-12-10T10:13:51Z</time>
      </trkpt>
      <trkpt lat="44.82254" lon="5.06334">
        <ele>534.63</ele>
        <time>2020-12-10T10:13:54Z</time>
      </trkpt>
      <trkpt lat="44.8225" lon="5.06352">
        <ele>534.63</ele>
        <time>2020-12-10T10:14:10Z</time>
      </trkpt>
      <trkpt lat="44.82245" lon="5.06368">
        <ele>534.15</ele>
        <time>2020-12-10T10:14:22Z</time>
      </trkpt>
      <trkpt lat="44.8224" lon="5.06378">
        <ele>534.63</ele>
        <time>2020-12-10T10:14:32Z</time>
      </trkpt>
      <trkpt lat="44.82228" lon="5.06374">
        <ele>532.71</ele>
        <time>2020-12-10T10:14:49Z</time>
      </trkpt>
      <trkpt lat="44.82216" lon="5.06356">
        <ele>532.71</ele>
        <time>2020-12-10T10:15:04Z</time>
      </trkpt>
      <trkpt lat="44.82209" lon="5.06349">
        <ele>532.23</ele>
        <time>2020-12-10T10:15:11Z</time>
      </trkpt>
      <trkpt lat="44.82194" lon="5.06331">
        <ele>529.34</ele>
        <time>2020-12-10T10:15:27Z</time>
      </trkpt>
      <trkpt lat="44.8218" lon="5.06313">
        <ele>527.42</ele>
        <time>2020-12-10T10:15:41Z</time>
      </trkpt>
      <trkpt lat="44.82168" lon="5.06297">
        <ele>520.69</ele>
        <time>2020-12-10T10:15:58Z</time>
      </trkpt>
      <trkpt lat="44.82157" lon="5.06279">
        <ele>516.37</ele>
        <time>2020-12-10T10:16:14Z</time>
      </trkpt>
      <trkpt lat="44.82152" lon="5.06274">
        <ele>516.37</ele>
        <time>2020-12-10T10:16:19Z</time>
      </trkpt>
      <trkpt lat="44.82142" lon="5.06276">
        <ele>514.44</ele>
        <time>2020-12-10T10:16:33Z</time>
      </trkpt>
      <trkpt lat="44.82131" lon="5.06287">
        <ele>510.6</ele>
        <time>2020-12-10T10:16:49Z</time>
      </trkpt>
      <trkpt lat="44.82121" lon="5.06294">
        <ele>509.64</ele>
        <time>2020-12-10T10:17:03Z</time>
      </trkpt>
      <trkpt lat="44.82118" lon="5.06277">
        <ele>506.27</ele>
        <time>2020-12-10T10:17:19Z</time>
      </trkpt>
      <trkpt lat="44.82117" lon="5.06251">
        <ele>503.87</ele>
        <time>2020-12-10T10:17:39Z</time>
      </trkpt>
      <trkpt lat="44.82113" lon="5.0623">
        <ele>500.02</ele>
        <time>2020-12-10T10:17:54Z</time>
      </trkpt>
      <trkpt lat="44.82114" lon="5.06206">
        <ele>501.95</ele>
        <time>2020-12-10T10:18:11Z</time>
      </trkpt>
      <trkpt lat="44.82113" lon="5.06181">
        <ele>503.87</ele>
        <time>2020-12-10T10:18:25Z</time>
      </trkpt>
      <trkpt lat="44.82112" lon="5.06159">
        <ele>506.27</ele>
        <time>2020-12-10T10:18:39Z</time>
      </trkpt>
      <trkpt lat="44.82112" lon="5.06144">
        <ele>507.71</ele>
        <time>2020-12-10T10:18:52Z</time>
      </trkpt>
      <trkpt lat="44.8211" lon="5.06124">
        <ele>507.23</ele>
        <time>2020-12-10T10:19:08Z</time>
      </trkpt>
      <trkpt lat="44.82112" lon="5.06104">
        <ele>504.35</ele>
        <time>2020-12-10T10:19:24Z</time>
      </trkpt>
      <trkpt lat="44.82115" lon="5.06087">
        <ele>499.06</ele>
        <time>2020-12-10T10:19:43Z</time>
      </trkpt>
      <trkpt lat="44.82115" lon="5.06074">
        <ele>498.58</ele>
        <time>2020-12-10T10:19:57Z</time>
      </trkpt>
      <trkpt lat="44.82117" lon="5.06055">
        <ele>497.62</ele>
        <time>2020-12-10T10:20:16Z</time>
      </trkpt>
      <trkpt lat="44.82116" lon="5.06037">
        <ele>491.37</ele>
        <time>2020-12-10T10:20:31Z</time>
      </trkpt>
      <trkpt lat="44.82117" lon="5.06031">
        <ele>482.24</ele>
        <time>2020-12-10T10:20:50Z</time>
      </trkpt>
      <trkpt lat="44.82114" lon="5.06014">
        <ele>479.35</ele>
        <time>2020-12-10T10:21:03Z</time>
      </trkpt>
      <trkpt lat="44.82111" lon="5.05993">
        <ele>478.87</ele>
        <time>2020-12-10T10:21:18Z</time>
      </trkpt>
      <trkpt lat="44.82108" lon="5.05976">
        <ele>473.11</ele>
        <time>2020-12-10T10:21:33Z</time>
      </trkpt>
      <trkpt lat="44.82105" lon="5.0596">
        <ele>467.34</ele>
        <time>2020-12-10T10:21:47Z</time>
      </trkpt>
      <trkpt lat="44.821" lon="5.05949">
        <ele>461.57</ele>
        <time>2020-12-10T10:21:54Z</time>
      </trkpt>
      <trkpt lat="44.82098" lon="5.05937">
        <ele>458.69</ele>
        <time>2020-12-10T10:22:02Z</time>
      </trkpt>
      <trkpt lat="44.82092" lon="5.05914">
        <ele>453.88</ele>
        <time>2020-12-10T10:22:19Z</time>
      </trkpt>
      <trkpt lat="44.8209" lon="5.05893">
        <ele>450.52</ele>
        <time>2020-12-10T10:22:36Z</time>
      </trkpt>
      <trkpt lat="44.82089" lon="5.05884">
        <ele>448.11</ele>
        <time>2020-12-10T10:22:44Z</time>
      </trkpt>
      <trkpt lat="44.82088" lon="5.05865">
        <ele>444.75</ele>
        <time>2020-12-10T10:22:59Z</time>
      </trkpt>
      <trkpt lat="44.82087" lon="5.05858">
        <ele>442.82</ele>
        <time>2020-12-10T10:23:05Z</time>
      </trkpt>
      <trkpt lat="44.82083" lon="5.05847">
        <ele>439.94</ele>
        <time>2020-12-10T10:23:12Z</time>
      </trkpt>
      <trkpt lat="44.82076" lon="5.0583">
        <ele>437.54</ele>
        <time>2020-12-10T10:23:24Z</time>
      </trkpt>
      <trkpt lat="44.82072" lon="5.05827">
        <ele>437.06</ele>
        <time>2020-12-10T10:23:28Z</time>
      </trkpt>
      <trkpt lat="44.82068" lon="5.05825">
        <ele>435.61</ele>
        <time>2020-12-10T10:23:35Z</time>
      </trkpt>
      <trkpt lat="44.82066" lon="5.05814">
        <ele>433.69</ele>
        <time>2020-12-10T10:23:48Z</time>
      </trkpt>
      <trkpt lat="44.82066" lon="5.05806">
        <ele>432.73</ele>
        <time>2020-12-10T10:23:55Z</time>
      </trkpt>
      <trkpt lat="44.82072" lon="5.05804">
        <ele>431.29</ele>
        <time>2020-12-10T10:24:01Z</time>
      </trkpt>
      <trkpt lat="44.82082" lon="5.05817">
        <ele>430.81</ele>
        <time>2020-12-10T10:24:11Z</time>
      </trkpt>
      <trkpt lat="44.82087" lon="5.05829">
        <ele>430.81</ele>
        <time>2020-12-10T10:24:18Z</time>
      </trkpt>
      <trkpt lat="44.82091" lon="5.05842">
        <ele>429.85</ele>
        <time>2020-12-10T10:24:28Z</time>
      </trkpt>
      <trkpt lat="44.82095" lon="5.05848">
        <ele>430.33</ele>
        <time>2020-12-10T10:24:33Z</time>
      </trkpt>
      <trkpt lat="44.82098" lon="5.05849">
        <ele>430.33</ele>
        <time>2020-12-10T10:24:35Z</time>
      </trkpt>
      <trkpt lat="44.821" lon="5.05849">
        <ele>430.81</ele>
        <time>2020-12-10T10:24:37Z</time>
      </trkpt>
      <trkpt lat="44.82106" lon="5.05845">
        <ele>430.33</ele>
        <time>2020-12-10T10:24:43Z</time>
      </trkpt>
      <trkpt lat="44.82111" lon="5.05842">
        <ele>429.85</ele>
        <time>2020-12-10T10:24:47Z</time>
      </trkpt>
      <trkpt lat="44.82114" lon="5.05839">
        <ele>430.33</ele>
        <time>2020-12-10T10:24:49Z</time>
      </trkpt>
      <trkpt lat="44.8212" lon="5.05832">
        <ele>430.33</ele>
        <time>2020-12-10T10:24:53Z</time>
      </trkpt>
      <trkpt lat="44.82124" lon="5.05828">
        <ele>430.33</ele>
        <time>2020-12-10T10:24:58Z</time>
      </trkpt>
      <trkpt lat="44.82137" lon="5.05811">
        <ele>429.37</ele>
        <time>2020-12-10T10:25:14Z</time>
      </trkpt>
      <trkpt lat="44.82139" lon="5.058">
        <ele>430.33</ele>
        <time>2020-12-10T10:25:20Z</time>
      </trkpt>
      <trkpt lat="44.82136" lon="5.05782">
        <ele>430.81</ele>
        <time>2020-12-10T10:25:36Z</time>
      </trkpt>
      <trkpt lat="44.82142" lon="5.05766">
        <ele>429.85</ele>
        <time>2020-12-10T10:25:46Z</time>
      </trkpt>
      <trkpt lat="44.82149" lon="5.05749">
        <ele>430.33</ele>
        <time>2020-12-10T10:25:56Z</time>
      </trkpt>
      <trkpt lat="44.82154" lon="5.05738">
        <ele>428.89</ele>
        <time>2020-12-10T10:26:04Z</time>
      </trkpt>
      <trkpt lat="44.8216" lon="5.05718">
        <ele>428.4</ele>
        <time>2020-12-10T10:26:16Z</time>
      </trkpt>
      <trkpt lat="44.8217" lon="5.05696">
        <ele>426.96</ele>
        <time>2020-12-10T10:26:30Z</time>
      </trkpt>
      <trkpt lat="44.8218" lon="5.05677">
        <ele>423.6</ele>
        <time>2020-12-10T10:26:43Z</time>
      </trkpt>
      <trkpt lat="44.82185" lon="5.05671">
        <ele>423.12</ele>
        <time>2020-12-10T10:26:48Z</time>
      </trkpt>
      <trkpt lat="44.8219" lon="5.05654">
        <ele>419.75</ele>
        <time>2020-12-10T10:26:58Z</time>
      </trkpt>
      <trkpt lat="44.82202" lon="5.05638">
        <ele>415.91</ele>
        <time>2020-12-10T10:27:11Z</time>
      </trkpt>
      <trkpt lat="44.82212" lon="5.05624">
        <ele>412.54</ele>
        <time>2020-12-10T10:27:23Z</time>
      </trkpt>
      <trkpt lat="44.82214" lon="5.05615">
        <ele>412.06</ele>
        <time>2020-12-10T10:27:28Z</time>
      </trkpt>
      <trkpt lat="44.82216" lon="5.05608">
        <ele>412.06</ele>
        <time>2020-12-10T10:27:32Z</time>
      </trkpt>
      <trkpt lat="44.82218" lon="5.056">
        <ele>411.58</ele>
        <time>2020-12-10T10:27:37Z</time>
      </trkpt>
      <trkpt lat="44.82225" lon="5.05586">
        <ele>409.18</ele>
        <time>2020-12-10T10:27:47Z</time>
      </trkpt>
      <trkpt lat="44.82226" lon="5.05578">
        <ele>408.22</ele>
        <time>2020-12-10T10:27:52Z</time>
      </trkpt>
      <trkpt lat="44.8223" lon="5.05557">
        <ele>410.14</ele>
        <time>2020-12-10T10:28:06Z</time>
      </trkpt>
      <trkpt lat="44.82232" lon="5.05547">
        <ele>411.58</ele>
        <time>2020-12-10T10:28:12Z</time>
      </trkpt>
      <trkpt lat="44.82234" lon="5.05534">
        <ele>414.95</ele>
        <time>2020-12-10T10:28:19Z</time>
      </trkpt>
      <trkpt lat="44.82241" lon="5.0552">
        <ele>414.95</ele>
        <time>2020-12-10T10:28:28Z</time>
      </trkpt>
      <trkpt lat="44.8225" lon="5.05502">
        <ele>412.06</ele>
        <time>2020-12-10T10:28:40Z</time>
      </trkpt>
      <trkpt lat="44.82255" lon="5.05496">
        <ele>412.06</ele>
        <time>2020-12-10T10:28:44Z</time>
      </trkpt>
      <trkpt lat="44.82258" lon="5.05474">
        <ele>412.06</ele>
        <time>2020-12-10T10:28:56Z</time>
      </trkpt>
      <trkpt lat="44.82254" lon="5.05447">
        <ele>411.1</ele>
        <time>2020-12-10T10:29:11Z</time>
      </trkpt>
      <trkpt lat="44.82251" lon="5.05432">
        <ele>407.74</ele>
        <time>2020-12-10T10:29:19Z</time>
      </trkpt>
      <trkpt lat="44.82251" lon="5.05405">
        <ele>404.37</ele>
        <time>2020-12-10T10:29:32Z</time>
      </trkpt>
      <trkpt lat="44.8225" lon="5.05404">
        <ele>404.37</ele>
        <time>2020-12-10T10:29:33Z</time>
      </trkpt>
      <trkpt lat="44.82253" lon="5.05384">
        <ele>407.74</ele>
        <time>2020-12-10T10:29:43Z</time>
      </trkpt>
      <trkpt lat="44.8225" lon="5.05368">
        <ele>411.1</ele>
        <time>2020-12-10T10:29:54Z</time>
      </trkpt>
      <trkpt lat="44.82248" lon="5.05366">
        <ele>411.58</ele>
        <time>2020-12-10T10:29:56Z</time>
      </trkpt>
      <trkpt lat="44.82246" lon="5.05359">
        <ele>412.06</ele>
        <time>2020-12-10T10:30:01Z</time>
      </trkpt>
      <trkpt lat="44.82239" lon="5.05332">
        <ele>409.66</ele>
        <time>2020-12-10T10:30:17Z</time>
      </trkpt>
      <trkpt lat="44.82243" lon="5.05316">
        <ele>406.29</ele>
        <time>2020-12-10T10:30:25Z</time>
      </trkpt>
      <trkpt lat="44.82244" lon="5.05314">
        <ele>405.33</ele>
        <time>2020-12-10T10:30:27Z</time>
      </trkpt>
      <trkpt lat="44.82249" lon="5.05313">
        <ele>402.93</ele>
        <time>2020-12-10T10:30:33Z</time>
      </trkpt>
      <trkpt lat="44.82255" lon="5.05313">
        <ele>399.08</ele>
        <time>2020-12-10T10:30:44Z</time>
      </trkpt>
      <trkpt lat="44.82267" lon="5.05319">
        <ele>397.64</ele>
        <time>2020-12-10T10:30:55Z</time>
      </trkpt>
      <trkpt lat="44.82268" lon="5.0532">
        <ele>397.16</ele>
        <time>2020-12-10T10:30:56Z</time>
      </trkpt>
      <trkpt lat="44.82277" lon="5.05328">
        <ele>396.68</ele>
        <time>2020-12-10T10:31:05Z</time>
      </trkpt>
      <trkpt lat="44.82289" lon="5.05331">
        <ele>395.24</ele>
        <time>2020-12-10T10:31:16Z</time>
      </trkpt>
      <trkpt lat="44.823" lon="5.05327">
        <ele>392.84</ele>
        <time>2020-12-10T10:31:27Z</time>
      </trkpt>
      <trkpt lat="44.82312" lon="5.05321">
        <ele>387.55</ele>
        <time>2020-12-10T10:31:39Z</time>
      </trkpt>
      <trkpt lat="44.82324" lon="5.05305">
        <ele>384.66</ele>
        <time>2020-12-10T10:31:52Z</time>
      </trkpt>
      <trkpt lat="44.82326" lon="5.053">
        <ele>385.15</ele>
        <time>2020-12-10T10:31:55Z</time>
      </trkpt>
      <trkpt lat="44.82327" lon="5.05297">
        <ele>385.15</ele>
        <time>2020-12-10T10:31:57Z</time>
      </trkpt>
      <trkpt lat="44.82338" lon="5.05282">
        <ele>385.63</ele>
        <time>2020-12-10T10:32:10Z</time>
      </trkpt>
      <trkpt lat="44.82349" lon="5.05267">
        <ele>382.74</ele>
        <time>2020-12-10T10:32:22Z</time>
      </trkpt>
      <trkpt lat="44.82351" lon="5.0526">
        <ele>382.74</ele>
        <time>2020-12-10T10:32:27Z</time>
      </trkpt>
      <trkpt lat="44.82351" lon="5.05238">
        <ele>384.66</ele>
        <time>2020-12-10T10:32:39Z</time>
      </trkpt>
      <trkpt lat="44.82353" lon="5.0522">
        <ele>386.11</ele>
        <time>2020-12-10T10:32:49Z</time>
      </trkpt>
      <trkpt lat="44.82357" lon="5.05195">
        <ele>388.03</ele>
        <time>2020-12-10T10:33:03Z</time>
      </trkpt>
      <trkpt lat="44.82362" lon="5.05177">
        <ele>389.95</ele>
        <time>2020-12-10T10:33:15Z</time>
      </trkpt>
      <trkpt lat="44.82367" lon="5.0516">
        <ele>390.91</ele>
        <time>2020-12-10T10:33:26Z</time>
      </trkpt>
      <trkpt lat="44.82371" lon="5.05141">
        <ele>389.95</ele>
        <time>2020-12-10T10:33:38Z</time>
      </trkpt>
      <trkpt lat="44.82372" lon="5.0514">
        <ele>389.47</ele>
        <time>2020-12-10T10:33:40Z</time>
      </trkpt>
      <trkpt lat="44.82377" lon="5.05131">
        <ele>389.47</ele>
        <time>2020-12-10T10:33:47Z</time>
      </trkpt>
      <trkpt lat="44.82383" lon="5.05111">
        <ele>389.47</ele>
        <time>2020-12-10T10:33:59Z</time>
      </trkpt>
      <trkpt lat="44.82385" lon="5.05106">
        <ele>389.47</ele>
        <time>2020-12-10T10:34:02Z</time>
      </trkpt>
      <trkpt lat="44.82401" lon="5.05093">
        <ele>389.47</ele>
        <time>2020-12-10T10:34:18Z</time>
      </trkpt>
      <trkpt lat="44.82416" lon="5.05088">
        <ele>388.99</ele>
        <time>2020-12-10T10:34:29Z</time>
      </trkpt>
      <trkpt lat="44.8243" lon="5.0509">
        <ele>389.95</ele>
        <time>2020-12-10T10:34:40Z</time>
      </trkpt>
      <trkpt lat="44.82432" lon="5.0509">
        <ele>390.43</ele>
        <time>2020-12-10T10:34:43Z</time>
      </trkpt>
      <trkpt lat="44.82449" lon="5.05094">
        <ele>392.36</ele>
        <time>2020-12-10T10:34:56Z</time>
      </trkpt>
      <trkpt lat="44.82466" lon="5.05096">
        <ele>395.24</ele>
        <time>2020-12-10T10:35:10Z</time>
      </trkpt>
      <trkpt lat="44.82478" lon="5.05091">
        <ele>399.57</ele>
        <time>2020-12-10T10:35:22Z</time>
      </trkpt>
      <trkpt lat="44.82479" lon="5.05089">
        <ele>399.57</ele>
        <time>2020-12-10T10:35:23Z</time>
      </trkpt>
      <trkpt lat="44.82478" lon="5.0508">
        <ele>396.68</ele>
        <time>2020-12-10T10:35:34Z</time>
      </trkpt>
      <trkpt lat="44.82474" lon="5.05062">
        <ele>395.24</ele>
        <time>2020-12-10T10:35:46Z</time>
      </trkpt>
      <trkpt lat="44.82468" lon="5.0505">
        <ele>396.2</ele>
        <time>2020-12-10T10:35:55Z</time>
      </trkpt>
      <trkpt lat="44.82461" lon="5.05038">
        <ele>395.72</ele>
        <time>2020-12-10T10:36:05Z</time>
      </trkpt>
      <trkpt lat="44.82458" lon="5.05029">
        <ele>396.68</ele>
        <time>2020-12-10T10:36:11Z</time>
      </trkpt>
      <trkpt lat="44.82455" lon="5.05015">
        <ele>398.12</ele>
        <time>2020-12-10T10:36:20Z</time>
      </trkpt>
      <trkpt lat="44.82441" lon="5.05006">
        <ele>400.53</ele>
        <time>2020-12-10T10:36:32Z</time>
      </trkpt>
      <trkpt lat="44.82429" lon="5.05">
        <ele>401.01</ele>
        <time>2020-12-10T10:36:44Z</time>
      </trkpt>
      <trkpt lat="44.82426" lon="5.04994">
        <ele>402.45</ele>
        <time>2020-12-10T10:36:49Z</time>
      </trkpt>
      <trkpt lat="44.82433" lon="5.04988">
        <ele>403.89</ele>
        <time>2020-12-10T10:37:00Z</time>
      </trkpt>
      <trkpt lat="44.82439" lon="5.04989">
        <ele>404.85</ele>
        <time>2020-12-10T10:37:05Z</time>
      </trkpt>
      <trkpt lat="44.82444" lon="5.04986">
        <ele>404.85</ele>
        <time>2020-12-10T10:37:10Z</time>
      </trkpt>
      <trkpt lat="44.82449" lon="5.04987">
        <ele>404.85</ele>
        <time>2020-12-10T10:37:14Z</time>
      </trkpt>
      <trkpt lat="44.82458" lon="5.04985">
        <ele>405.81</ele>
        <time>2020-12-10T10:37:24Z</time>
      </trkpt>
      <trkpt lat="44.82462" lon="5.04987">
        <ele>406.29</ele>
        <time>2020-12-10T10:37:28Z</time>
      </trkpt>
      <trkpt lat="44.82468" lon="5.04997">
        <ele>406.77</ele>
        <time>2020-12-10T10:37:39Z</time>
      </trkpt>
      <trkpt lat="44.82475" lon="5.05004">
        <ele>406.77</ele>
        <time>2020-12-10T10:37:48Z</time>
      </trkpt>
      <trkpt lat="44.82482" lon="5.05007">
        <ele>408.22</ele>
        <time>2020-12-10T10:37:58Z</time>
      </trkpt>
      <trkpt lat="44.82486" lon="5.05008">
        <ele>409.18</ele>
        <time>2020-12-10T10:38:03Z</time>
      </trkpt>
      <trkpt lat="44.82489" lon="5.0501">
        <ele>409.66</ele>
        <time>2020-12-10T10:38:06Z</time>
      </trkpt>
      <trkpt lat="44.82503" lon="5.05014">
        <ele>411.1</ele>
        <time>2020-12-10T10:38:18Z</time>
      </trkpt>
      <trkpt lat="44.82511" lon="5.0502">
        <ele>411.58</ele>
        <time>2020-12-10T10:38:28Z</time>
      </trkpt>
      <trkpt lat="44.82518" lon="5.05023">
        <ele>412.06</ele>
        <time>2020-12-10T10:38:35Z</time>
      </trkpt>
      <trkpt lat="44.8253" lon="5.05021">
        <ele>411.58</ele>
        <time>2020-12-10T10:38:46Z</time>
      </trkpt>
      <trkpt lat="44.82531" lon="5.05021">
        <ele>411.58</ele>
        <time>2020-12-10T10:38:48Z</time>
      </trkpt>
      <trkpt lat="44.82535" lon="5.05021">
        <ele>412.06</ele>
        <time>2020-12-10T10:38:52Z</time>
      </trkpt>
      <trkpt lat="44.82545" lon="5.05022">
        <ele>411.58</ele>
        <time>2020-12-10T10:39:01Z</time>
      </trkpt>
      <trkpt lat="44.82553" lon="5.05006">
        <ele>408.7</ele>
        <time>2020-12-10T10:39:14Z</time>
      </trkpt>
      <trkpt lat="44.82557" lon="5.04998">
        <ele>403.41</ele>
        <time>2020-12-10T10:39:24Z</time>
      </trkpt>
      <trkpt lat="44.82565" lon="5.04989">
        <ele>400.53</ele>
        <time>2020-12-10T10:39:34Z</time>
      </trkpt>
      <trkpt lat="44.82565" lon="5.04988">
        <ele>399.57</ele>
        <time>2020-12-10T10:39:38Z</time>
      </trkpt>
      <trkpt lat="44.82574" lon="5.04976">
        <ele>402.45</ele>
        <time>2020-12-10T10:39:49Z</time>
      </trkpt>
      <trkpt lat="44.82584" lon="5.04965">
        <ele>401.49</ele>
        <time>2020-12-10T10:39:59Z</time>
      </trkpt>
      <trkpt lat="44.82584" lon="5.04965">
        <ele>401.97</ele>
        <time>2020-12-10T10:40:00Z</time>
      </trkpt>
      <trkpt lat="44.82588" lon="5.04954">
        <ele>400.53</ele>
        <time>2020-12-10T10:40:11Z</time>
      </trkpt>
      <trkpt lat="44.82589" lon="5.04949">
        <ele>400.53</ele>
        <time>2020-12-10T10:40:14Z</time>
      </trkpt>
      <trkpt lat="44.82587" lon="5.04935">
        <ele>401.49</ele>
        <time>2020-12-10T10:40:23Z</time>
      </trkpt>
      <trkpt lat="44.82595" lon="5.04912">
        <ele>404.37</ele>
        <time>2020-12-10T10:40:35Z</time>
      </trkpt>
      <trkpt lat="44.82596" lon="5.04909">
        <ele>404.37</ele>
        <time>2020-12-10T10:40:38Z</time>
      </trkpt>
      <trkpt lat="44.82603" lon="5.04891">
        <ele>405.81</ele>
        <time>2020-12-10T10:40:49Z</time>
      </trkpt>
      <trkpt lat="44.82605" lon="5.04867">
        <ele>403.41</ele>
        <time>2020-12-10T10:41:01Z</time>
      </trkpt>
      <trkpt lat="44.82611" lon="5.04848">
        <ele>400.05</ele>
        <time>2020-12-10T10:41:13Z</time>
      </trkpt>
      <trkpt lat="44.82618" lon="5.0483">
        <ele>399.08</ele>
        <time>2020-12-10T10:41:23Z</time>
      </trkpt>
      <trkpt lat="44.82623" lon="5.04815">
        <ele>397.64</ele>
        <time>2020-12-10T10:41:33Z</time>
      </trkpt>
      <trkpt lat="44.82627" lon="5.04804">
        <ele>396.2</ele>
        <time>2020-12-10T10:41:40Z</time>
      </trkpt>
      <trkpt lat="44.82632" lon="5.04791">
        <ele>394.28</ele>
        <time>2020-12-10T10:41:49Z</time>
      </trkpt>
      <trkpt lat="44.82635" lon="5.04772">
        <ele>392.84</ele>
        <time>2020-12-10T10:41:59Z</time>
      </trkpt>
      <trkpt lat="44.82637" lon="5.04754">
        <ele>392.84</ele>
        <time>2020-12-10T10:42:09Z</time>
      </trkpt>
      <trkpt lat="44.82638" lon="5.0474">
        <ele>394.28</ele>
        <time>2020-12-10T10:42:21Z</time>
      </trkpt>
      <trkpt lat="44.82637" lon="5.04723">
        <ele>394.76</ele>
        <time>2020-12-10T10:42:32Z</time>
      </trkpt>
      <trkpt lat="44.82636" lon="5.04704">
        <ele>394.28</ele>
        <time>2020-12-10T10:42:44Z</time>
      </trkpt>
      <trkpt lat="44.82635" lon="5.04687">
        <ele>395.24</ele>
        <time>2020-12-10T10:42:55Z</time>
      </trkpt>
      <trkpt lat="44.82634" lon="5.04676">
        <ele>395.72</ele>
        <time>2020-12-10T10:43:02Z</time>
      </trkpt>
      <trkpt lat="44.82633" lon="5.04669">
        <ele>395.72</ele>
        <time>2020-12-10T10:43:06Z</time>
      </trkpt>
      <trkpt lat="44.8263" lon="5.04657">
        <ele>395.24</ele>
        <time>2020-12-10T10:43:17Z</time>
      </trkpt>
      <trkpt lat="44.82625" lon="5.04646">
        <ele>396.68</ele>
        <time>2020-12-10T10:43:27Z</time>
      </trkpt>
      <trkpt lat="44.82618" lon="5.04636">
        <ele>397.16</ele>
        <time>2020-12-10T10:43:37Z</time>
      </trkpt>
      <trkpt lat="44.82611" lon="5.04625">
        <ele>398.6</ele>
        <time>2020-12-10T10:43:47Z</time>
      </trkpt>
      <trkpt lat="44.82604" lon="5.04615">
        <ele>398.12</ele>
        <time>2020-12-10T10:43:56Z</time>
      </trkpt>
      <trkpt lat="44.82596" lon="5.04605">
        <ele>398.12</ele>
        <time>2020-12-10T10:44:06Z</time>
      </trkpt>
      <trkpt lat="44.82587" lon="5.04594">
        <ele>399.08</ele>
        <time>2020-12-10T10:44:16Z</time>
      </trkpt>
      <trkpt lat="44.82578" lon="5.04587">
        <ele>398.6</ele>
        <time>2020-12-10T10:44:25Z</time>
      </trkpt>
      <trkpt lat="44.82569" lon="5.0458">
        <ele>399.08</ele>
        <time>2020-12-10T10:44:33Z</time>
      </trkpt>
      <trkpt lat="44.82555" lon="5.04575">
        <ele>398.6</ele>
        <time>2020-12-10T10:44:46Z</time>
      </trkpt>
      <trkpt lat="44.82545" lon="5.04561">
        <ele>398.12</ele>
        <time>2020-12-10T10:44:57Z</time>
      </trkpt>
      <trkpt lat="44.82545" lon="5.04544">
        <ele>397.16</ele>
        <time>2020-12-10T10:45:08Z</time>
      </trkpt>
      <trkpt lat="44.82547" lon="5.04528">
        <ele>396.2</ele>
        <time>2020-12-10T10:45:17Z</time>
      </trkpt>
      <trkpt lat="44.82547" lon="5.0452">
        <ele>395.24</ele>
        <time>2020-12-10T10:45:21Z</time>
      </trkpt>
      <trkpt lat="44.8255" lon="5.04502">
        <ele>392.84</ele>
        <time>2020-12-10T10:45:31Z</time>
      </trkpt>
      <trkpt lat="44.82551" lon="5.04485">
        <ele>391.39</ele>
        <time>2020-12-10T10:45:42Z</time>
      </trkpt>
      <trkpt lat="44.82547" lon="5.04467">
        <ele>391.39</ele>
        <time>2020-12-10T10:45:52Z</time>
      </trkpt>
      <trkpt lat="44.82546" lon="5.0445">
        <ele>391.87</ele>
        <time>2020-12-10T10:46:02Z</time>
      </trkpt>
      <trkpt lat="44.8254" lon="5.04434">
        <ele>393.32</ele>
        <time>2020-12-10T10:46:14Z</time>
      </trkpt>
      <trkpt lat="44.82533" lon="5.04421">
        <ele>395.72</ele>
        <time>2020-12-10T10:46:25Z</time>
      </trkpt>
      <trkpt lat="44.82523" lon="5.04409">
        <ele>397.16</ele>
        <time>2020-12-10T10:46:37Z</time>
      </trkpt>
      <trkpt lat="44.82512" lon="5.04401">
        <ele>397.16</ele>
        <time>2020-12-10T10:46:47Z</time>
      </trkpt>
      <trkpt lat="44.825" lon="5.04391">
        <ele>397.16</ele>
        <time>2020-12-10T10:46:59Z</time>
      </trkpt>
      <trkpt lat="44.82487" lon="5.04385">
        <ele>394.28</ele>
        <time>2020-12-10T10:47:10Z</time>
      </trkpt>
      <trkpt lat="44.82476" lon="5.0438">
        <ele>393.8</ele>
        <time>2020-12-10T10:47:20Z</time>
      </trkpt>
      <trkpt lat="44.82467" lon="5.04373">
        <ele>392.84</ele>
        <time>2020-12-10T10:47:30Z</time>
      </trkpt>
      <trkpt lat="44.82458" lon="5.04363">
        <ele>391.39</ele>
        <time>2020-12-10T10:47:40Z</time>
      </trkpt>
      <trkpt lat="44.82446" lon="5.04363">
        <ele>390.43</ele>
        <time>2020-12-10T10:47:50Z</time>
      </trkpt>
      <trkpt lat="44.82432" lon="5.04366">
        <ele>391.87</ele>
        <time>2020-12-10T10:48:02Z</time>
      </trkpt>
      <trkpt lat="44.82421" lon="5.04371">
        <ele>391.39</ele>
        <time>2020-12-10T10:48:12Z</time>
      </trkpt>
      <trkpt lat="44.82408" lon="5.04374">
        <ele>390.43</ele>
        <time>2020-12-10T10:48:23Z</time>
      </trkpt>
      <trkpt lat="44.82395" lon="5.04377">
        <ele>391.87</ele>
        <time>2020-12-10T10:48:33Z</time>
      </trkpt>
      <trkpt lat="44.82384" lon="5.0438">
        <ele>393.32</ele>
        <time>2020-12-10T10:48:43Z</time>
      </trkpt>
      <trkpt lat="44.82371" lon="5.04383">
        <ele>397.16</ele>
        <time>2020-12-10T10:48:55Z</time>
      </trkpt>
      <trkpt lat="44.82361" lon="5.04385">
        <ele>398.6</ele>
        <time>2020-12-10T10:49:04Z</time>
      </trkpt>
      <trkpt lat="44.8235" lon="5.04382">
        <ele>399.08</ele>
        <time>2020-12-10T10:49:14Z</time>
      </trkpt>
      <trkpt lat="44.82348" lon="5.04379">
        <ele>398.12</ele>
        <time>2020-12-10T10:49:17Z</time>
      </trkpt>
      <trkpt lat="44.82343" lon="5.04377">
        <ele>398.12</ele>
        <time>2020-12-10T10:49:21Z</time>
      </trkpt>
      <trkpt lat="44.82331" lon="5.04371">
        <ele>396.2</ele>
        <time>2020-12-10T10:49:31Z</time>
      </trkpt>
      <trkpt lat="44.82326" lon="5.04364">
        <ele>396.68</ele>
        <time>2020-12-10T10:49:38Z</time>
      </trkpt>
      <trkpt lat="44.82315" lon="5.04361">
        <ele>396.68</ele>
        <time>2020-12-10T10:49:48Z</time>
      </trkpt>
      <trkpt lat="44.82315" lon="5.04362">
        <ele>396.68</ele>
        <time>2020-12-10T10:49:50Z</time>
      </trkpt>
      <trkpt lat="44.82321" lon="5.04362">
        <ele>395.72</ele>
        <time>2020-12-10T10:49:56Z</time>
      </trkpt>
      <trkpt lat="44.8233" lon="5.04356">
        <ele>396.68</ele>
        <time>2020-12-10T10:50:04Z</time>
      </trkpt>
      <trkpt lat="44.82332" lon="5.04348">
        <ele>397.64</ele>
        <time>2020-12-10T10:50:10Z</time>
      </trkpt>
      <trkpt lat="44.82333" lon="5.04336">
        <ele>398.12</ele>
        <time>2020-12-10T10:50:19Z</time>
      </trkpt>
      <trkpt lat="44.82328" lon="5.04324">
        <ele>401.49</ele>
        <time>2020-12-10T10:50:32Z</time>
      </trkpt>
      <trkpt lat="44.82327" lon="5.04322">
        <ele>401.97</ele>
        <time>2020-12-10T10:50:34Z</time>
      </trkpt>
      <trkpt lat="44.82319" lon="5.0431">
        <ele>401.01</ele>
        <time>2020-12-10T10:50:44Z</time>
      </trkpt>
      <trkpt lat="44.82317" lon="5.04304">
        <ele>401.01</ele>
        <time>2020-12-10T10:50:49Z</time>
      </trkpt>
      <trkpt lat="44.82314" lon="5.043">
        <ele>403.89</ele>
        <time>2020-12-10T10:51:03Z</time>
      </trkpt>
      <trkpt lat="44.82314" lon="5.04302">
        <ele>401.97</ele>
        <time>2020-12-10T10:51:42Z</time>
      </trkpt>
      <trkpt lat="44.82315" lon="5.04299">
        <ele>400.53</ele>
        <time>2020-12-10T10:52:24Z</time>
      </trkpt>
      <trkpt lat="44.82313" lon="5.04298">
        <ele>400.53</ele>
        <time>2020-12-10T10:52:46Z</time>
      </trkpt>
      <trkpt lat="44.82314" lon="5.043">
        <ele>399.57</ele>
        <time>2020-12-10T10:53:15Z</time>
      </trkpt>
      <trkpt lat="44.82316" lon="5.04299">
        <ele>402.45</ele>
        <time>2020-12-10T10:53:56Z</time>
      </trkpt>
      <trkpt lat="44.82316" lon="5.04299">
        <ele>403.41</ele>
        <time>2020-12-10T10:54:33Z</time>
      </trkpt>
      <trkpt lat="44.82315" lon="5.043">
        <ele>400.05</ele>
        <time>2020-12-10T10:55:12Z</time>
      </trkpt>
      <trkpt lat="44.82314" lon="5.04299">
        <ele>400.53</ele>
        <time>2020-12-10T10:55:48Z</time>
      </trkpt>
      <trkpt lat="44.82314" lon="5.04299">
        <ele>400.53</ele>
        <time>2020-12-10T10:55:49Z</time>
      </trkpt>
      <trkpt lat="44.82321" lon="5.04313">
        <ele>399.57</ele>
        <time>2020-12-10T10:56:00Z</time>
      </trkpt>
      <trkpt lat="44.82322" lon="5.04316">
        <ele>399.08</ele>
        <time>2020-12-10T10:56:02Z</time>
      </trkpt>
      <trkpt lat="44.82325" lon="5.04323">
        <ele>399.57</ele>
        <time>2020-12-10T10:56:08Z</time>
      </trkpt>
      <trkpt lat="44.82329" lon="5.04328">
        <ele>400.05</ele>
        <time>2020-12-10T10:56:20Z</time>
      </trkpt>
      <trkpt lat="44.82331" lon="5.04331">
        <ele>399.08</ele>
        <time>2020-12-10T10:56:27Z</time>
      </trkpt>
      <trkpt lat="44.82332" lon="5.04347">
        <ele>397.64</ele>
        <time>2020-12-10T10:56:36Z</time>
      </trkpt>
      <trkpt lat="44.82335" lon="5.04349">
        <ele>397.64</ele>
        <time>2020-12-10T10:56:39Z</time>
      </trkpt>
      <trkpt lat="44.82344" lon="5.04345">
        <ele>395.72</ele>
        <time>2020-12-10T10:56:48Z</time>
      </trkpt>
      <trkpt lat="44.82348" lon="5.04346">
        <ele>394.76</ele>
        <time>2020-12-10T10:56:52Z</time>
      </trkpt>
      <trkpt lat="44.82349" lon="5.04357">
        <ele>393.8</ele>
        <time>2020-12-10T10:56:59Z</time>
      </trkpt>
      <trkpt lat="44.82362" lon="5.04355">
        <ele>392.36</ele>
        <time>2020-12-10T10:57:09Z</time>
      </trkpt>
      <trkpt lat="44.82363" lon="5.04356">
        <ele>391.87</ele>
        <time>2020-12-10T10:57:12Z</time>
      </trkpt>
      <trkpt lat="44.82375" lon="5.04352">
        <ele>388.51</ele>
        <time>2020-12-10T10:57:23Z</time>
      </trkpt>
      <trkpt lat="44.8238" lon="5.04348">
        <ele>385.15</ele>
        <time>2020-12-10T10:57:33Z</time>
      </trkpt>
      <trkpt lat="44.8238" lon="5.04348">
        <ele>384.66</ele>
        <time>2020-12-10T10:57:34Z</time>
      </trkpt>
      <trkpt lat="44.82383" lon="5.04341">
        <ele>383.22</ele>
        <time>2020-12-10T10:57:41Z</time>
      </trkpt>
      <trkpt lat="44.82383" lon="5.04327">
        <ele>379.38</ele>
        <time>2020-12-10T10:57:53Z</time>
      </trkpt>
      <trkpt lat="44.82382" lon="5.04324">
        <ele>377.94</ele>
        <time>2020-12-10T10:57:58Z</time>
      </trkpt>
      <trkpt lat="44.82382" lon="5.04312">
        <ele>376.49</ele>
        <time>2020-12-10T10:58:07Z</time>
      </trkpt>
      <trkpt lat="44.82383" lon="5.04302">
        <ele>375.53</ele>
        <time>2020-12-10T10:58:16Z</time>
      </trkpt>
      <trkpt lat="44.82382" lon="5.04279">
        <ele>372.65</ele>
        <time>2020-12-10T10:58:29Z</time>
      </trkpt>
      <trkpt lat="44.82382" lon="5.04277">
        <ele>372.65</ele>
        <time>2020-12-10T10:58:32Z</time>
      </trkpt>
      <trkpt lat="44.82381" lon="5.04273">
        <ele>372.65</ele>
        <time>2020-12-10T10:58:34Z</time>
      </trkpt>
      <trkpt lat="44.82379" lon="5.04255">
        <ele>372.65</ele>
        <time>2020-12-10T10:58:47Z</time>
      </trkpt>
      <trkpt lat="44.82376" lon="5.04243">
        <ele>370.73</ele>
        <time>2020-12-10T10:58:59Z</time>
      </trkpt>
      <trkpt lat="44.82375" lon="5.04242">
        <ele>370.73</ele>
        <time>2020-12-10T10:59:00Z</time>
      </trkpt>
      <trkpt lat="44.82374" lon="5.04232">
        <ele>368.32</ele>
        <time>2020-12-10T10:59:09Z</time>
      </trkpt>
      <trkpt lat="44.82371" lon="5.04218">
        <ele>365.44</ele>
        <time>2020-12-10T10:59:21Z</time>
      </trkpt>
      <trkpt lat="44.82369" lon="5.04201">
        <ele>363.52</ele>
        <time>2020-12-10T10:59:34Z</time>
      </trkpt>
      <trkpt lat="44.82367" lon="5.04192">
        <ele>362.07</ele>
        <time>2020-12-10T10:59:42Z</time>
      </trkpt>
      <trkpt lat="44.82361" lon="5.04187">
        <ele>361.11</ele>
        <time>2020-12-10T10:59:47Z</time>
      </trkpt>
      <trkpt lat="44.82368" lon="5.04172">
        <ele>358.71</ele>
        <time>2020-12-10T10:59:59Z</time>
      </trkpt>
      <trkpt lat="44.82369" lon="5.04169">
        <ele>357.27</ele>
        <time>2020-12-10T11:00:03Z</time>
      </trkpt>
      <trkpt lat="44.82366" lon="5.04154">
        <ele>353.42</ele>
        <time>2020-12-10T11:00:15Z</time>
      </trkpt>
      <trkpt lat="44.82364" lon="5.04142">
        <ele>352.46</ele>
        <time>2020-12-10T11:00:24Z</time>
      </trkpt>
      <trkpt lat="44.82364" lon="5.04128">
        <ele>349.58</ele>
        <time>2020-12-10T11:00:35Z</time>
      </trkpt>
      <trkpt lat="44.82362" lon="5.04116">
        <ele>348.13</ele>
        <time>2020-12-10T11:00:45Z</time>
      </trkpt>
      <trkpt lat="44.82357" lon="5.04095">
        <ele>346.21</ele>
        <time>2020-12-10T11:00:59Z</time>
      </trkpt>
      <trkpt lat="44.82352" lon="5.04083">
        <ele>343.81</ele>
        <time>2020-12-10T11:01:10Z</time>
      </trkpt>
      <trkpt lat="44.82351" lon="5.04081">
        <ele>343.33</ele>
        <time>2020-12-10T11:01:13Z</time>
      </trkpt>
      <trkpt lat="44.82345" lon="5.04072">
        <ele>341.89</ele>
        <time>2020-12-10T11:01:21Z</time>
      </trkpt>
      <trkpt lat="44.8234" lon="5.04056">
        <ele>338.04</ele>
        <time>2020-12-10T11:01:33Z</time>
      </trkpt>
      <trkpt lat="44.82337" lon="5.04048">
        <ele>336.12</ele>
        <time>2020-12-10T11:01:40Z</time>
      </trkpt>
      <trkpt lat="44.82337" lon="5.04042">
        <ele>335.16</ele>
        <time>2020-12-10T11:01:45Z</time>
      </trkpt>
      <trkpt lat="44.82336" lon="5.04033">
        <ele>334.68</ele>
        <time>2020-12-10T11:01:50Z</time>
      </trkpt>
      <trkpt lat="44.82331" lon="5.04014">
        <ele>331.31</ele>
        <time>2020-12-10T11:02:03Z</time>
      </trkpt>
      <trkpt lat="44.82324" lon="5.03997">
        <ele>328.43</ele>
        <time>2020-12-10T11:02:15Z</time>
      </trkpt>
      <trkpt lat="44.82323" lon="5.03996">
        <ele>327.95</ele>
        <time>2020-12-10T11:02:17Z</time>
      </trkpt>
      <trkpt lat="44.82314" lon="5.03977">
        <ele>325.54</ele>
        <time>2020-12-10T11:02:29Z</time>
      </trkpt>
      <trkpt lat="44.82305" lon="5.03957">
        <ele>323.14</ele>
        <time>2020-12-10T11:02:42Z</time>
      </trkpt>
      <trkpt lat="44.82298" lon="5.03943">
        <ele>321.7</ele>
        <time>2020-12-10T11:02:52Z</time>
      </trkpt>
      <trkpt lat="44.8229" lon="5.03927">
        <ele>320.74</ele>
        <time>2020-12-10T11:03:02Z</time>
      </trkpt>
      <trkpt lat="44.82288" lon="5.0391">
        <ele>323.14</ele>
        <time>2020-12-10T11:03:12Z</time>
      </trkpt>
      <trkpt lat="44.82287" lon="5.03905">
        <ele>323.14</ele>
        <time>2020-12-10T11:03:25Z</time>
      </trkpt>
    </trkseg>
  </trk>
</gpx>